Time,TemperatureF,DewpointF,PressureIn,WindDirection,WindDirectionDegrees,WindSpeedMPH,WindSpeedGustMPH,Humidity,HourlyPrecipIn,Conditions,Clouds,dailyrainin,SolarRadiationWatts/m^2,SoftwareType,DateUTC
2013-02-09 11:00:00,44.9,22.1,30.28,West,270,4.0,7.0,40,0.00,,,0.00,1659.00,VWS V14.01,2013-02-09 16:00:00,
2013-02-09 11:01:00,44.9,22.6,30.28,West,270,2.0,4.0,41,0.00,,,0.00,1658.00,VWS V14.01,2013-02-09 16:01:00,
2013-02-09 11:02:00,45.0,22.7,30.28,West,270,2.0,4.0,41,0.00,,,0.00,1658.00,VWS V14.01,2013-02-09 16:02:00,
2013-02-09 11:03:00,45.1,22.8,30.28,WNW,292,1.0,3.0,41,0.00,,,0.00,1654.00,VWS V14.01,2013-02-09 16:03:00,
2013-02-09 11:04:00,45.1,21.6,30.28,WNW,292,3.0,7.0,39,0.00,,,0.00,1654.00,VWS V14.01,2013-02-09 16:04:00,
2013-02-09 11:05:00,45.2,21.7,30.28,WNW,292,4.0,7.0,39,0.00,,,0.00,1656.00,VWS V14.01,2013-02-09 16:05:00,
2013-02-09 11:06:00,45.3,21.2,30.28,NNW,338,3.0,4.0,38,0.00,,,0.00,1656.00,VWS V14.01,2013-02-09 16:06:00,
2013-02-09 11:07:00,45.3,20.6,30.28,NW,315,3.0,4.0,37,0.00,,,0.00,1656.00,VWS V14.01,2013-02-09 16:07:00,
2013-02-09 11:08:00,45.3,20.6,30.28,NNW,338,2.0,5.0,37,0.00,,,0.00,1656.00,VWS V14.01,2013-02-09 16:08:00,
2013-02-09 11:09:00,45.3,21.2,30.28,NNW,338,1.0,3.0,38,0.00,,,0.00,1658.00,VWS V14.01,2013-02-09 16:09:00,
2013-02-09 11:10:00,45.3,21.2,30.28,NNW,338,4.0,6.0,38,0.00,,,0.00,1658.00,VWS V14.01,2013-02-09 16:10:00,
2013-02-09 11:11:00,45.3,20.6,30.28,NW,315,3.0,6.0,37,0.00,,,0.00,1660.00,VWS V14.01,2013-02-09 16:11:00,
2013-02-09 11:12:00,45.3,21.2,30.28,NNW,338,2.0,4.0,38,0.00,,,0.00,1661.00,VWS V14.01,2013-02-09 16:12:00,
2013-02-09 11:13:00,45.2,21.1,30.28,NNW,338,2.0,5.0,38,0.00,,,0.00,1661.00,VWS V14.01,2013-02-09 16:13:00,
2013-02-09 11:14:00,45.3,22.4,30.29,NNW,338,2.0,4.0,40,0.00,,,0.00,1665.00,VWS V14.01,2013-02-09 16:14:00,
2013-02-09 11:15:00,45.4,20.7,30.29,NNE,22,2.0,5.0,37,0.00,,,0.00,1666.00,VWS V14.01,2013-02-09 16:15:00,
2013-02-09 11:16:00,45.4,20.7,30.29,NW,315,3.0,4.0,37,0.00,,,0.00,1668.00,VWS V14.01,2013-02-09 16:16:00,
2013-02-09 11:17:00,45.5,21.4,30.29,NW,315,2.0,5.0,38,0.00,,,0.00,1671.00,VWS V14.01,2013-02-09 16:17:00,
2013-02-09 11:18:00,45.6,21.5,30.29,NW,315,2.0,4.0,38,0.00,,,0.00,1673.00,VWS V14.01,2013-02-09 16:18:00,
2013-02-09 11:19:00,45.6,21.5,30.28,WSW,248,3.0,4.0,38,0.00,,,0.00,1675.00,VWS V14.01,2013-02-09 16:19:00,
2013-02-09 11:20:00,45.7,20.9,30.28,WSW,248,4.0,5.0,37,0.00,,,0.00,1677.00,VWS V14.01,2013-02-09 16:20:00,
2013-02-09 11:21:00,45.8,21.0,30.28,NNW,338,1.0,5.0,37,0.00,,,0.00,1675.00,VWS V14.01,2013-02-09 16:21:00,
2013-02-09 11:22:00,45.9,21.7,30.28,NNW,338,3.0,6.0,38,0.00,,,0.00,1673.00,VWS V14.01,2013-02-09 16:22:00,
2013-02-09 11:23:00,46.0,20.6,30.28,North,0,2.0,4.0,36,0.00,,,0.00,1673.00,VWS V14.01,2013-02-09 16:23:00,
2013-02-09 11:24:00,46.0,20.6,30.28,NNE,22,2.0,3.0,36,0.00,,,0.00,1672.00,VWS V14.01,2013-02-09 16:24:00,
2013-02-09 11:25:00,46.0,20.6,30.29,NW,315,2.0,4.0,36,0.00,,,0.00,1672.00,VWS V14.01,2013-02-09 16:25:00,
2013-02-09 11:26:00,46.0,20.6,30.29,NW,315,2.0,3.0,36,0.00,,,0.00,1672.00,VWS V14.01,2013-02-09 16:26:00,
2013-02-09 11:27:00,46.0,21.2,30.28,NW,315,1.0,3.0,37,0.00,,,0.00,1673.00,VWS V14.01,2013-02-09 16:27:00,
2013-02-09 11:28:00,46.0,21.2,30.28,NW,315,1.0,2.0,37,0.00,,,0.00,1675.00,VWS V14.01,2013-02-09 16:28:00,
2013-02-09 11:29:00,46.1,21.3,30.28,WSW,248,3.0,6.0,37,0.00,,,0.00,1679.00,VWS V14.01,2013-02-09 16:29:00,
2013-02-09 11:30:00,46.2,21.4,30.28,WNW,292,3.0,5.0,37,0.00,,,0.00,1677.00,VWS V14.01,2013-02-09 16:30:00,
2013-02-09 11:31:00,46.3,20.8,30.28,WNW,292,3.0,4.0,36,0.00,,,0.00,1677.00,VWS V14.01,2013-02-09 16:31:00,
2013-02-09 11:32:00,46.3,20.8,30.28,WNW,292,3.0,5.0,36,0.00,,,0.00,1675.00,VWS V14.01,2013-02-09 16:32:00,
2013-02-09 11:33:00,46.4,20.2,30.28,NW,315,3.0,5.0,35,0.00,,,0.00,1675.00,VWS V14.01,2013-02-09 16:33:00,
2013-02-09 11:34:00,46.4,20.2,30.29,NW,315,3.0,5.0,35,0.00,,,0.00,1674.00,VWS V14.01,2013-02-09 16:34:00,
2013-02-09 11:35:00,46.4,20.2,30.29,NW,315,2.0,4.0,35,0.00,,,0.00,1673.00,VWS V14.01,2013-02-09 16:35:00,
2013-02-09 11:36:00,46.4,20.2,30.28,West,270,2.0,2.0,35,0.00,,,0.00,1673.00,VWS V14.01,2013-02-09 16:36:00,
2013-02-09 11:37:00,46.4,20.9,30.28,West,270,1.0,2.0,36,0.00,,,0.00,1673.00,VWS V14.01,2013-02-09 16:37:00,
2013-02-09 11:38:00,46.5,20.3,30.29,West,270,1.0,2.0,35,0.00,,,0.00,1672.00,VWS V14.01,2013-02-09 16:38:00,
2013-02-09 11:39:00,46.6,20.4,30.28,NNW,338,1.0,3.0,35,0.00,,,0.00,1673.00,VWS V14.01,2013-02-09 16:39:00,
2013-02-09 11:40:00,46.6,20.4,30.28,NW,315,3.0,7.0,35,0.00,,,0.00,1675.00,VWS V14.01,2013-02-09 16:40:00,
2013-02-09 11:41:00,46.7,20.5,30.28,NW,315,2.0,4.0,35,0.00,,,0.00,1679.00,VWS V14.01,2013-02-09 16:41:00,
2013-02-09 11:42:00,46.8,20.6,30.29,NW,315,2.0,4.0,35,0.00,,,0.00,1679.00,VWS V14.01,2013-02-09 16:42:00,
2013-02-09 11:43:00,46.8,19.9,30.28,NW,315,5.0,7.0,34,0.00,,,0.00,1680.00,VWS V14.01,2013-02-09 16:43:00,
2013-02-09 11:44:00,46.9,19.3,30.29,NW,315,3.0,5.0,33,0.00,,,0.00,1680.00,VWS V14.01,2013-02-09 16:44:00,
2013-02-09 11:45:00,46.9,19.3,30.29,NW,315,3.0,6.0,33,0.00,,,0.00,1679.00,VWS V14.01,2013-02-09 16:45:00,
2013-02-09 11:46:00,46.8,19.2,30.29,NW,315,4.0,7.0,33,0.00,,,0.00,1679.00,VWS V14.01,2013-02-09 16:46:00,
2013-02-09 11:47:00,46.8,19.2,30.29,WNW,292,2.0,5.0,33,0.00,,,0.00,1679.00,VWS V14.01,2013-02-09 16:47:00,
2013-02-09 11:48:00,46.8,19.9,30.29,NNW,338,3.0,6.0,34,0.00,,,0.00,1677.00,VWS V14.01,2013-02-09 16:48:00,
2013-02-09 11:49:00,46.8,19.2,30.28,NW,315,3.0,4.0,33,0.00,,,0.00,1677.00,VWS V14.01,2013-02-09 16:49:00,
2013-02-09 11:50:00,46.7,19.1,30.28,WNW,292,2.0,3.0,33,0.00,,,0.00,1675.00,VWS V14.01,2013-02-09 16:50:00,
2013-02-09 11:51:00,46.7,19.8,30.28,North,0,3.0,5.0,34,0.00,,,0.00,1677.00,VWS V14.01,2013-02-09 16:51:00,
2013-02-09 11:52:00,46.7,19.8,30.28,NNW,338,3.0,4.0,34,0.00,,,0.00,1678.00,VWS V14.01,2013-02-09 16:52:00,
2013-02-09 11:53:00,46.7,19.8,30.28,WNW,292,3.0,4.0,34,0.00,,,0.00,1679.00,VWS V14.01,2013-02-09 16:53:00,
2013-02-09 11:54:00,46.7,20.5,30.28,WNW,292,3.0,5.0,35,0.00,,,0.00,1679.00,VWS V14.01,2013-02-09 16:54:00,
2013-02-09 11:55:00,46.8,20.6,30.28,NW,315,4.0,5.0,35,0.00,,,0.00,1679.00,VWS V14.01,2013-02-09 16:55:00,
2013-02-09 11:56:00,46.9,21.4,30.28,WSW,248,5.0,10.0,36,0.00,,,0.00,1679.00,VWS V14.01,2013-02-09 16:56:00,
2013-02-09 11:57:00,47.0,20.8,30.28,WNW,292,2.0,3.0,35,0.00,,,0.00,1675.00,VWS V14.01,2013-02-09 16:57:00,
2013-02-09 11:58:00,47.1,20.9,30.28,WNW,292,2.0,4.0,35,0.00,,,0.00,1677.00,VWS V14.01,2013-02-09 16:58:00,
2013-02-09 11:59:00,47.1,20.9,30.28,WNW,292,1.0,3.0,35,0.00,,,0.00,1677.00,VWS V14.01,2013-02-09 16:59:00,
2013-02-09 12:00:00,47.2,21.0,30.28,WSW,248,6.0,7.0,35,0.00,,,0.00,1677.00,VWS V14.01,2013-02-09 17:00:00,
2013-02-09 12:01:00,47.2,21.0,30.28,West,270,3.0,5.0,35,0.00,,,0.00,1677.00,VWS V14.01,2013-02-09 17:01:00,
2013-02-09 12:02:00,47.2,21.0,30.28,West,270,1.0,2.0,35,0.00,,,0.00,1675.00,VWS V14.01,2013-02-09 17:02:00,
2013-02-09 12:03:00,47.2,21.0,30.28,West,270,1.0,2.0,35,0.00,,,0.00,1673.00,VWS V14.01,2013-02-09 17:03:00,
2013-02-09 12:04:00,47.2,21.0,30.28,NNW,338,3.0,7.0,35,0.00,,,0.00,1673.00,VWS V14.01,2013-02-09 17:04:00,
2013-02-09 12:05:00,47.3,21.0,30.28,NNW,338,3.0,6.0,35,0.00,,,0.00,1675.00,VWS V14.01,2013-02-09 17:05:00,
2013-02-09 12:06:00,47.3,20.4,30.28,WNW,292,2.0,4.0,34,0.00,,,0.00,1675.00,VWS V14.01,2013-02-09 17:06:00,
2013-02-09 12:07:00,47.3,21.7,30.28,WNW,292,1.0,2.0,36,0.00,,,0.00,1675.00,VWS V14.01,2013-02-09 17:07:00,
2013-02-09 12:08:00,47.4,21.1,30.28,WNW,292,0.0,1.0,35,0.00,,,0.00,1675.00,VWS V14.01,2013-02-09 17:08:00,
2013-02-09 12:09:00,47.4,20.5,30.28,West,270,6.0,12.0,34,0.00,,,0.00,1680.00,VWS V14.01,2013-02-09 17:09:00,
2013-02-09 12:10:00,47.6,20.6,30.28,NNW,338,3.0,4.0,34,0.00,,,0.00,1680.00,VWS V14.01,2013-02-09 17:10:00,
2013-02-09 12:11:00,47.7,20.0,30.28,NNW,338,2.0,4.0,33,0.00,,,0.00,1682.00,VWS V14.01,2013-02-09 17:11:00,
2013-02-09 12:12:00,47.8,20.8,30.28,WSW,248,4.0,5.0,34,0.00,,,0.00,1682.00,VWS V14.01,2013-02-09 17:12:00,
2013-02-09 12:13:00,47.9,20.2,30.28,West,270,2.0,4.0,33,0.00,,,0.00,1684.00,VWS V14.01,2013-02-09 17:13:00,
2013-02-09 12:14:00,47.9,20.2,30.28,West,270,1.0,2.0,33,0.00,,,0.00,1682.00,VWS V14.01,2013-02-09 17:14:00,
2013-02-09 12:15:00,47.9,20.2,30.28,WNW,292,3.0,5.0,33,0.00,,,0.00,1682.00,VWS V14.01,2013-02-09 17:15:00,
2013-02-09 12:16:00,48.0,21.0,30.29,WSW,248,5.0,11.0,34,0.00,,,0.00,1682.00,VWS V14.01,2013-02-09 17:16:00,
2013-02-09 12:17:00,48.1,20.4,30.28,WSW,248,5.0,7.0,33,0.00,,,0.00,1679.00,VWS V14.01,2013-02-09 17:17:00,
2013-02-09 12:18:00,48.0,20.3,30.29,WSW,248,3.0,5.0,33,0.00,,,0.00,1677.00,VWS V14.01,2013-02-09 17:18:00,
2013-02-09 12:19:00,47.9,20.2,30.28,NNW,338,2.0,6.0,33,0.00,,,0.00,1675.00,VWS V14.01,2013-02-09 17:19:00,
2013-02-09 12:20:00,47.9,20.2,30.28,NNW,338,3.0,4.0,33,0.00,,,0.00,1673.00,VWS V14.01,2013-02-09 17:20:00,
2013-02-09 12:21:00,47.8,20.1,30.28,NW,315,2.0,3.0,33,0.00,,,0.00,1672.00,VWS V14.01,2013-02-09 17:21:00,
2013-02-09 12:22:00,47.8,20.1,30.28,NW,315,3.0,4.0,33,0.00,,,0.00,1670.00,VWS V14.01,2013-02-09 17:22:00,
2013-02-09 12:23:00,47.8,20.1,30.28,NW,315,4.0,5.0,33,0.00,,,0.00,1670.00,VWS V14.01,2013-02-09 17:23:00,
2013-02-09 12:24:00,47.7,20.7,30.28,WNW,292,3.0,4.0,34,0.00,,,0.00,1670.00,VWS V14.01,2013-02-09 17:24:00,
2013-02-09 12:25:00,47.7,20.0,30.28,NW,315,2.0,4.0,33,0.00,,,0.00,1670.00,VWS V14.01,2013-02-09 17:25:00,
2013-02-09 12:26:00,47.7,20.7,30.28,West,270,4.0,9.0,34,0.00,,,0.00,1672.00,VWS V14.01,2013-02-09 17:26:00,
2013-02-09 12:27:00,47.7,20.7,30.28,WNW,292,4.0,9.0,34,0.00,,,0.00,1674.00,VWS V14.01,2013-02-09 17:27:00,
2013-02-09 12:28:00,47.8,20.8,30.28,WSW,248,4.0,7.0,34,0.00,,,0.00,1675.00,VWS V14.01,2013-02-09 17:28:00,
2013-02-09 12:29:00,47.8,20.1,30.28,WSW,248,2.0,3.0,33,0.00,,,0.00,1675.00,VWS V14.01,2013-02-09 17:29:00,
2013-02-09 12:30:00,47.8,20.8,30.28,NNW,338,2.0,4.0,34,0.00,,,0.00,1670.00,VWS V14.01,2013-02-09 17:30:00,
2013-02-09 12:31:00,47.9,20.2,30.28,NNW,338,0.0,1.0,33,0.00,,,0.00,1673.00,VWS V14.01,2013-02-09 17:31:00,
2013-02-09 12:32:00,47.9,21.6,30.28,WNW,292,3.0,5.0,35,0.00,,,0.00,1673.00,VWS V14.01,2013-02-09 17:32:00,
2013-02-09 12:33:00,48.1,21.8,30.28,NNW,338,2.0,4.0,35,0.00,,,0.00,1677.00,VWS V14.01,2013-02-09 17:33:00,
2013-02-09 12:34:00,48.2,20.5,30.28,NNW,338,3.0,6.0,33,0.00,,,0.00,1680.00,VWS V14.01,2013-02-09 17:34:00,
2013-02-09 12:35:00,48.2,20.5,30.28,NNW,338,3.0,5.0,33,0.00,,,0.00,1680.00,VWS V14.01,2013-02-09 17:35:00,
2013-02-09 12:36:00,48.1,20.4,30.28,NW,315,2.0,4.0,33,0.00,,,0.00,1680.00,VWS V14.01,2013-02-09 17:36:00,
2013-02-09 12:37:00,48.1,21.1,30.28,NW,315,1.0,2.0,34,0.00,,,0.00,1682.00,VWS V14.01,2013-02-09 17:37:00,
2013-02-09 12:38:00,48.1,20.4,30.28,NW,315,0.0,1.0,33,0.00,,,0.00,1682.00,VWS V14.01,2013-02-09 17:38:00,
2013-02-09 12:39:00,48.2,20.5,30.28,NE,45,3.0,4.0,33,0.00,,,0.00,1689.00,VWS V14.01,2013-02-09 17:39:00,
2013-02-09 12:40:00,48.2,21.2,30.28,North,0,1.0,3.0,34,0.00,,,0.00,1691.00,VWS V14.01,2013-02-09 17:40:00,
2013-02-09 12:41:00,48.2,21.9,30.28,North,0,2.0,3.0,35,0.00,,,0.00,1695.00,VWS V14.01,2013-02-09 17:41:00,
2013-02-09 12:42:00,48.3,21.2,30.28,NNW,338,3.0,4.0,34,0.00,,,0.00,1696.00,VWS V14.01,2013-02-09 17:42:00,
2013-02-09 12:43:00,48.4,21.3,30.28,NNE,22,0.0,2.0,34,0.00,,,0.00,1698.00,VWS V14.01,2013-02-09 17:43:00,
2013-02-09 12:44:00,48.4,21.3,30.28,NNE,22,2.0,4.0,34,0.00,,,0.00,1700.00,VWS V14.01,2013-02-09 17:44:00,
2013-02-09 12:45:00,48.5,21.4,30.28,NNW,338,2.0,4.0,34,0.00,,,0.00,1704.00,VWS V14.01,2013-02-09 17:45:00,
2013-02-09 12:46:00,48.6,22.2,30.28,ENE,68,4.0,6.0,35,0.00,,,0.00,1709.00,VWS V14.01,2013-02-09 17:46:00,
2013-02-09 12:47:00,48.7,22.3,30.28,NE,45,3.0,4.0,35,0.00,,,0.00,1709.00,VWS V14.01,2013-02-09 17:47:00,
2013-02-09 12:48:00,48.8,22.4,30.28,East,90,4.0,6.0,35,0.00,,,0.00,1712.00,VWS V14.01,2013-02-09 17:48:00,
2013-02-09 12:49:00,48.9,21.1,30.27,NNE,22,2.0,5.0,33,0.00,,,0.00,1714.00,VWS V14.01,2013-02-09 17:49:00,
2013-02-09 12:50:00,49.0,21.9,30.27,NNE,22,0.0,1.0,34,0.00,,,0.00,1716.00,VWS V14.01,2013-02-09 17:50:00,
2013-02-09 12:51:00,49.0,22.6,30.27,North,0,2.0,3.0,35,0.00,,,0.00,1717.00,VWS V14.01,2013-02-09 17:51:00,
2013-02-09 12:52:00,49.1,22.0,30.27,NW,315,1.0,2.0,34,0.00,,,0.00,1719.00,VWS V14.01,2013-02-09 17:52:00,
2013-02-09 12:53:00,49.3,22.1,30.27,NNW,338,2.0,3.0,34,0.00,,,0.00,1719.00,VWS V14.01,2013-02-09 17:53:00,
2013-02-09 12:54:00,49.4,21.5,30.27,NNW,338,2.0,4.0,33,0.00,,,0.00,1721.00,VWS V14.01,2013-02-09 17:54:00,
2013-02-09 12:55:00,49.4,21.5,30.27,West,270,7.0,11.0,33,0.00,,,0.00,1721.00,VWS V14.01,2013-02-09 17:55:00,
2013-02-09 12:56:00,49.5,21.6,30.27,WSW,248,5.0,9.0,33,0.00,,,0.00,1719.00,VWS V14.01,2013-02-09 17:56:00,
2013-02-09 12:57:00,49.5,21.6,30.27,West,270,5.0,10.0,33,0.00,,,0.00,1716.00,VWS V14.01,2013-02-09 17:57:00,
2013-02-09 12:58:00,49.5,20.9,30.27,West,270,2.0,4.0,32,0.00,,,0.00,1709.00,VWS V14.01,2013-02-09 17:58:00,
2013-02-09 12:59:00,49.6,22.4,30.27,WSW,248,5.0,9.0,34,0.00,,,0.00,1707.00,VWS V14.01,2013-02-09 17:59:00,
2013-02-09 13:00:00,49.6,21.7,30.27,WSW,248,2.0,4.0,33,0.00,,,0.00,1703.00,VWS V14.01,2013-02-09 18:00:00,
2013-02-09 13:01:00,49.6,21.0,30.27,West,270,3.0,6.0,32,0.00,,,0.00,1700.00,VWS V14.01,2013-02-09 18:01:00,
2013-02-09 13:02:00,49.7,21.8,30.27,West,270,3.0,5.0,33,0.00,,,0.00,1696.00,VWS V14.01,2013-02-09 18:02:00,
2013-02-09 13:03:00,49.7,21.1,30.27,NW,315,3.0,6.0,32,0.00,,,0.00,1693.00,VWS V14.01,2013-02-09 18:03:00,
2013-02-09 13:04:00,49.7,20.3,30.27,NNW,338,1.0,3.0,31,0.00,,,0.00,1693.00,VWS V14.01,2013-02-09 18:04:00,
2013-02-09 13:05:00,49.7,20.3,30.27,NNW,338,0.0,1.0,31,0.00,,,0.00,1693.00,VWS V14.01,2013-02-09 18:05:00,
2013-02-09 13:06:00,49.7,19.5,30.27,NNW,338,1.0,2.0,30,0.00,,,0.00,1693.00,VWS V14.01,2013-02-09 18:06:00,
2013-02-09 13:07:00,49.7,19.5,30.27,NNW,338,1.0,2.0,30,0.00,,,0.00,1693.00,VWS V14.01,2013-02-09 18:07:00,
2013-02-09 13:08:00,49.7,20.3,30.27,NNW,338,1.0,2.0,31,0.00,,,0.00,1696.00,VWS V14.01,2013-02-09 18:08:00,
2013-02-09 13:09:00,49.7,21.1,30.27,North,0,2.0,4.0,32,0.00,,,0.00,1698.00,VWS V14.01,2013-02-09 18:09:00,
2013-02-09 13:10:00,49.7,21.1,30.27,NW,315,3.0,5.0,32,0.00,,,0.00,1700.00,VWS V14.01,2013-02-09 18:10:00,
2013-02-09 13:11:00,49.7,20.3,30.27,NNW,338,4.0,6.0,31,0.00,,,0.00,1702.00,VWS V14.01,2013-02-09 18:11:00,
2013-02-09 13:12:00,49.7,19.5,30.27,NW,315,4.0,6.0,30,0.00,,,0.00,1702.00,VWS V14.01,2013-02-09 18:12:00,
2013-02-09 13:13:00,49.7,18.8,30.27,NNW,338,4.0,6.0,29,0.00,,,0.00,1703.00,VWS V14.01,2013-02-09 18:13:00,
2013-02-09 13:14:00,49.7,19.5,30.27,NW,315,2.0,3.0,30,0.00,,,0.00,1703.00,VWS V14.01,2013-02-09 18:14:00,
2013-02-09 13:15:00,49.7,18.8,30.27,NNW,338,2.0,3.0,29,0.00,,,0.00,1702.00,VWS V14.01,2013-02-09 18:15:00,
2013-02-09 13:16:00,49.7,18.8,30.27,WSW,248,3.0,5.0,29,0.00,,,0.00,1700.00,VWS V14.01,2013-02-09 18:16:00,
2013-02-09 13:17:00,49.7,19.5,30.27,NNW,338,0.0,1.0,30,0.00,,,0.00,1702.00,VWS V14.01,2013-02-09 18:17:00,
2013-02-09 13:18:00,49.7,19.5,30.27,NNW,338,0.0,1.0,30,0.00,,,0.00,1703.00,VWS V14.01,2013-02-09 18:18:00,
2013-02-09 13:19:00,49.9,20.5,30.27,NNW,338,0.0,2.0,31,0.00,,,0.00,1703.00,VWS V14.01,2013-02-09 18:19:00,
2013-02-09 13:20:00,50.0,19.8,30.27,NNW,338,1.0,3.0,30,0.00,,,0.00,1706.00,VWS V14.01,2013-02-09 18:20:00,
2013-02-09 13:21:00,50.1,19.9,30.27,North,0,2.0,3.0,30,0.00,,,0.00,1707.00,VWS V14.01,2013-02-09 18:21:00,
2013-02-09 13:22:00,50.2,20.0,30.27,NW,315,1.0,2.0,30,0.00,,,0.00,1707.00,VWS V14.01,2013-02-09 18:22:00,
2013-02-09 13:23:00,50.4,19.4,30.27,West,270,2.0,5.0,29,0.00,,,0.00,1707.00,VWS V14.01,2013-02-09 18:23:00,
2013-02-09 13:24:00,50.5,19.5,30.27,WSW,248,5.0,9.0,29,0.00,,,0.00,1712.00,VWS V14.01,2013-02-09 18:24:00,
2013-02-09 13:25:00,50.6,19.5,30.27,North,0,5.0,6.0,29,0.00,,,0.00,1712.00,VWS V14.01,2013-02-09 18:25:00,
2013-02-09 13:26:00,50.7,19.6,30.27,NNE,22,4.0,7.0,29,0.00,,,0.00,1711.00,VWS V14.01,2013-02-09 18:26:00,
2013-02-09 13:27:00,50.7,19.6,30.27,ENE,68,2.0,4.0,29,0.00,,,0.00,1709.00,VWS V14.01,2013-02-09 18:27:00,
2013-02-09 13:28:00,50.7,19.6,30.27,North,0,3.0,5.0,29,0.00,,,0.00,1709.00,VWS V14.01,2013-02-09 18:28:00,
2013-02-09 13:29:00,50.7,19.6,30.27,NNW,338,2.0,3.0,29,0.00,,,0.00,1709.00,VWS V14.01,2013-02-09 18:29:00,
2013-02-09 13:30:00,50.6,19.5,30.27,ENE,68,2.0,3.0,29,0.00,,,0.00,1707.00,VWS V14.01,2013-02-09 18:30:00,
2013-02-09 13:31:00,50.6,18.7,30.27,NNW,338,2.0,3.0,28,0.00,,,0.00,1707.00,VWS V14.01,2013-02-09 18:31:00,
2013-02-09 13:32:00,50.6,18.7,30.27,NW,315,2.0,3.0,28,0.00,,,0.00,1707.00,VWS V14.01,2013-02-09 18:32:00,
2013-02-09 13:33:00,50.5,18.6,30.27,NW,315,2.0,3.0,28,0.00,,,0.00,1709.00,VWS V14.01,2013-02-09 18:33:00,
2013-02-09 13:34:00,50.6,18.7,30.27,NW,315,3.0,5.0,28,0.00,,,0.00,1709.00,VWS V14.01,2013-02-09 18:34:00,
2013-02-09 13:35:00,50.5,19.5,30.27,NNW,338,2.0,4.0,29,0.00,,,0.00,1709.00,VWS V14.01,2013-02-09 18:35:00,
2013-02-09 13:36:00,50.6,19.5,30.27,NNW,338,1.0,3.0,29,0.00,,,0.00,1709.00,VWS V14.01,2013-02-09 18:36:00,
2013-02-09 13:37:00,50.6,18.7,30.27,NNW,338,0.0,2.0,28,0.00,,,0.00,1710.00,VWS V14.01,2013-02-09 18:37:00,
2013-02-09 13:38:00,50.5,18.6,30.27,NNW,338,0.0,1.0,28,0.00,,,0.00,1710.00,VWS V14.01,2013-02-09 18:38:00,
2013-02-09 13:39:00,50.5,19.5,30.27,NE,45,2.0,4.0,29,0.00,,,0.00,1710.00,VWS V14.01,2013-02-09 18:39:00,
2013-02-09 13:40:00,50.5,19.5,30.27,NNE,22,2.0,4.0,29,0.00,,,0.00,1712.00,VWS V14.01,2013-02-09 18:40:00,
2013-02-09 13:41:00,50.6,19.5,30.26,NNW,338,2.0,5.0,29,0.00,,,0.00,1714.00,VWS V14.01,2013-02-09 18:41:00,
2013-02-09 13:42:00,50.6,19.5,30.26,NNW,338,1.0,4.0,29,0.00,,,0.00,1714.00,VWS V14.01,2013-02-09 18:42:00,
2013-02-09 13:43:00,50.6,19.5,30.26,NNW,338,2.0,4.0,29,0.00,,,0.00,1717.00,VWS V14.01,2013-02-09 18:43:00,
2013-02-09 13:44:00,50.5,19.5,30.26,NNW,338,1.0,3.0,29,0.00,,,0.00,1719.00,VWS V14.01,2013-02-09 18:44:00,
2013-02-09 13:45:00,50.5,19.5,30.26,NNE,22,2.0,5.0,29,0.00,,,0.00,1717.00,VWS V14.01,2013-02-09 18:45:00,
2013-02-09 13:46:00,50.5,19.5,30.26,NW,315,3.0,6.0,29,0.00,,,0.00,1721.00,VWS V14.01,2013-02-09 18:46:00,
2013-02-09 13:47:00,50.5,20.2,30.26,North,0,2.0,5.0,30,0.00,,,0.00,1721.00,VWS V14.01,2013-02-09 18:47:00,
2013-02-09 13:48:00,50.6,21.1,30.26,North,0,3.0,5.0,31,0.00,,,0.00,1721.00,VWS V14.01,2013-02-09 18:48:00,
2013-02-09 13:49:00,50.6,21.9,30.26,WNW,292,1.0,2.0,32,0.00,,,0.00,1721.00,VWS V14.01,2013-02-09 18:49:00,
2013-02-09 13:50:00,50.8,22.0,30.26,WNW,292,1.0,3.0,32,0.00,,,0.00,1721.00,VWS V14.01,2013-02-09 18:50:00,
2013-02-09 13:51:00,50.9,21.4,30.26,WSW,248,4.0,7.0,31,0.00,,,0.00,1721.00,VWS V14.01,2013-02-09 18:51:00,
2013-02-09 13:52:00,51.1,21.5,30.26,WNW,292,3.0,7.0,31,0.00,,,0.00,1721.00,VWS V14.01,2013-02-09 18:52:00,
2013-02-09 13:53:00,51.2,20.9,30.26,West,270,4.0,6.0,30,0.00,,,0.00,1719.00,VWS V14.01,2013-02-09 18:53:00,
2013-02-09 13:54:00,51.2,20.9,30.26,WSW,248,3.0,6.0,30,0.00,,,0.00,1717.00,VWS V14.01,2013-02-09 18:54:00,
2013-02-09 13:55:00,51.2,20.9,30.26,WSW,248,6.0,11.0,30,0.00,,,0.00,1713.00,VWS V14.01,2013-02-09 18:55:00,
2013-02-09 13:56:00,51.2,20.9,30.26,WSW,248,6.0,7.0,30,0.00,,,0.00,1707.00,VWS V14.01,2013-02-09 18:56:00,
2013-02-09 13:57:00,51.1,21.5,30.26,WNW,292,2.0,5.0,31,0.00,,,0.00,1703.00,VWS V14.01,2013-02-09 18:57:00,
2013-02-09 13:58:00,51.1,21.5,30.26,West,270,3.0,4.0,31,0.00,,,0.00,1698.00,VWS V14.01,2013-02-09 18:58:00,
2013-02-09 13:59:00,51.2,22.4,30.26,West,270,4.0,6.0,32,0.00,,,0.00,1696.00,VWS V14.01,2013-02-09 18:59:00,
2013-02-09 14:00:00,51.2,21.6,30.26,West,270,5.0,6.0,31,0.00,,,0.00,1693.00,VWS V14.01,2013-02-09 19:00:00,
2013-02-09 14:01:00,51.3,20.1,30.26,WSW,248,2.0,6.0,29,0.00,,,0.00,1692.00,VWS V14.01,2013-02-09 19:01:00,
2013-02-09 14:02:00,51.3,22.5,30.26,SSW,202,2.0,9.0,32,0.00,,,0.00,1691.00,VWS V14.01,2013-02-09 19:02:00,
2013-02-09 14:03:00,51.5,22.6,30.26,West,270,7.0,11.0,32,0.00,,,0.00,1691.00,VWS V14.01,2013-02-09 19:03:00,
2013-02-09 14:04:00,51.6,21.2,30.26,WNW,292,2.0,3.0,30,0.00,,,0.00,1691.00,VWS V14.01,2013-02-09 19:04:00,
2013-02-09 14:05:00,51.6,21.2,30.26,NW,315,3.0,4.0,30,0.00,,,0.00,1689.00,VWS V14.01,2013-02-09 19:05:00,
2013-02-09 14:06:00,51.6,21.2,30.26,West,270,3.0,6.0,30,0.00,,,0.00,1689.00,VWS V14.01,2013-02-09 19:06:00,
2013-02-09 14:07:00,51.7,22.1,30.26,West,270,3.0,4.0,31,0.00,,,0.00,1690.00,VWS V14.01,2013-02-09 19:07:00,
2013-02-09 14:08:00,51.7,22.1,30.26,WNW,292,3.0,5.0,31,0.00,,,0.00,1689.00,VWS V14.01,2013-02-09 19:08:00,
2013-02-09 14:09:00,51.7,22.1,30.26,WNW,292,3.0,5.0,31,0.00,,,0.00,1691.00,VWS V14.01,2013-02-09 19:09:00,
2013-02-09 14:10:00,51.8,22.1,30.26,West,270,3.0,6.0,31,0.00,,,0.00,1693.00,VWS V14.01,2013-02-09 19:10:00,
2013-02-09 14:11:00,51.8,21.4,30.26,West,270,3.0,4.0,30,0.00,,,0.00,1695.00,VWS V14.01,2013-02-09 19:11:00,
2013-02-09 14:12:00,51.9,22.2,30.26,West,270,2.0,4.0,31,0.00,,,0.00,1696.00,VWS V14.01,2013-02-09 19:12:00,
2013-02-09 14:13:00,52.0,20.8,30.26,West,270,5.0,10.0,29,0.00,,,0.00,1698.00,VWS V14.01,2013-02-09 19:13:00,
2013-02-09 14:14:00,52.0,20.8,30.26,WSW,248,7.0,10.0,29,0.00,,,0.00,1698.00,VWS V14.01,2013-02-09 19:14:00,
2013-02-09 14:15:00,52.0,20.8,30.26,West,270,3.0,7.0,29,0.00,,,0.00,1696.00,VWS V14.01,2013-02-09 19:15:00,
2013-02-09 14:16:00,52.0,20.8,30.26,West,270,2.0,4.0,29,0.00,,,0.00,1695.00,VWS V14.01,2013-02-09 19:16:00,
2013-02-09 14:17:00,51.9,20.7,30.26,NNE,22,1.0,3.0,29,0.00,,,0.00,1693.00,VWS V14.01,2013-02-09 19:17:00,
2013-02-09 14:18:00,51.9,20.7,30.26,NNW,338,2.0,9.0,29,0.00,,,0.00,1693.00,VWS V14.01,2013-02-09 19:18:00,
2013-02-09 14:19:00,51.8,20.6,30.26,NNE,22,5.0,9.0,29,0.00,,,0.00,1693.00,VWS V14.01,2013-02-09 19:19:00,
2013-02-09 14:20:00,51.8,19.8,30.26,NE,45,1.0,2.0,28,0.00,,,0.00,1695.00,VWS V14.01,2013-02-09 19:20:00,
2013-02-09 14:21:00,51.7,20.5,30.26,NNW,338,1.0,2.0,29,0.00,,,0.00,1696.00,VWS V14.01,2013-02-09 19:21:00,
2013-02-09 14:22:00,51.7,21.3,30.26,NNW,338,1.0,3.0,30,0.00,,,0.00,1698.00,VWS V14.01,2013-02-09 19:22:00,
2013-02-09 14:23:00,51.8,20.6,30.26,NNW,338,1.0,6.0,29,0.00,,,0.00,1702.00,VWS V14.01,2013-02-09 19:23:00,
2013-02-09 14:24:00,51.8,20.6,30.26,West,270,2.0,5.0,29,0.00,,,0.00,1709.00,VWS V14.01,2013-02-09 19:24:00,
2013-02-09 14:25:00,51.8,20.6,30.26,West,270,1.0,3.0,29,0.00,,,0.00,1709.00,VWS V14.01,2013-02-09 19:25:00,
2013-02-09 14:26:00,51.9,20.7,30.26,West,270,3.0,4.0,29,0.00,,,0.00,1710.00,VWS V14.01,2013-02-09 19:26:00,
2013-02-09 14:27:00,52.0,20.8,30.26,WSW,248,5.0,8.0,29,0.00,,,0.00,1710.00,VWS V14.01,2013-02-09 19:27:00,
2013-02-09 14:28:00,52.1,20.0,30.26,NW,315,1.0,5.0,28,0.00,,,0.00,1712.00,VWS V14.01,2013-02-09 19:28:00,
2013-02-09 14:29:00,52.1,20.8,30.26,NW,315,1.0,2.0,29,0.00,,,0.00,1710.00,VWS V14.01,2013-02-09 19:29:00,
2013-02-09 14:30:00,52.2,21.7,30.26,West,270,2.0,5.0,30,0.00,,,0.00,1710.00,VWS V14.01,2013-02-09 19:30:00,
2013-02-09 14:31:00,52.3,21.0,30.26,NW,315,2.0,4.0,29,0.00,,,0.00,1709.00,VWS V14.01,2013-02-09 19:31:00,
2013-02-09 14:32:00,52.4,21.1,30.26,WSW,248,5.0,9.0,29,0.00,,,0.00,1710.00,VWS V14.01,2013-02-09 19:32:00,
2013-02-09 14:33:00,52.4,21.1,30.26,WSW,248,3.0,6.0,29,0.00,,,0.00,1710.00,VWS V14.01,2013-02-09 19:33:00,
2013-02-09 14:34:00,52.5,21.2,30.26,WSW,248,4.0,8.0,29,0.00,,,0.00,1710.00,VWS V14.01,2013-02-09 19:34:00,
2013-02-09 14:35:00,52.6,20.4,30.26,WNW,292,4.0,9.0,28,0.00,,,0.00,1710.00,VWS V14.01,2013-02-09 19:35:00,
2013-02-09 14:36:00,52.6,21.3,30.26,West,270,3.0,5.0,29,0.00,,,0.00,1710.00,VWS V14.01,2013-02-09 19:36:00,
2013-02-09 14:37:00,52.7,20.5,30.26,West,270,5.0,10.0,28,0.00,,,0.00,1707.00,VWS V14.01,2013-02-09 19:37:00,
2013-02-09 14:38:00,52.7,19.7,30.26,West,270,3.0,7.0,27,0.00,,,0.00,1705.00,VWS V14.01,2013-02-09 19:38:00,
2013-02-09 14:39:00,52.6,20.4,30.26,NNW,338,2.0,4.0,28,0.00,,,0.00,1703.00,VWS V14.01,2013-02-09 19:39:00,
2013-02-09 14:40:00,52.5,20.4,30.26,NW,315,2.0,5.0,28,0.00,,,0.00,1702.00,VWS V14.01,2013-02-09 19:40:00,
2013-02-09 14:41:00,52.4,21.1,30.26,WNW,292,1.0,2.0,29,0.00,,,0.00,1702.00,VWS V14.01,2013-02-09 19:41:00,
2013-02-09 14:42:00,52.4,21.9,30.25,WNW,292,1.0,3.0,30,0.00,,,0.00,1703.00,VWS V14.01,2013-02-09 19:42:00,
2013-02-09 14:43:00,52.4,20.3,30.25,WNW,292,2.0,5.0,28,0.00,,,0.00,1703.00,VWS V14.01,2013-02-09 19:43:00,
2013-02-09 14:44:00,52.3,20.2,30.25,NNW,338,2.0,5.0,28,0.00,,,0.00,1705.00,VWS V14.01,2013-02-09 19:44:00,
2013-02-09 14:45:00,52.2,20.1,30.25,NNW,338,1.0,2.0,28,0.00,,,0.00,1707.00,VWS V14.01,2013-02-09 19:45:00,
2013-02-09 14:46:00,52.2,20.1,30.25,NW,315,1.0,3.0,28,0.00,,,0.00,1705.00,VWS V14.01,2013-02-09 19:46:00,
2013-02-09 14:47:00,52.1,20.0,30.26,West,270,3.0,6.0,28,0.00,,,0.00,1705.00,VWS V14.01,2013-02-09 19:47:00,
2013-02-09 14:48:00,52.1,20.0,30.26,WNW,292,1.0,3.0,28,0.00,,,0.00,1709.00,VWS V14.01,2013-02-09 19:48:00,
2013-02-09 14:49:00,52.1,20.0,30.26,NW,315,4.0,6.0,28,0.00,,,0.00,1709.00,VWS V14.01,2013-02-09 19:49:00,
2013-02-09 14:50:00,52.2,19.2,30.26,NW,315,2.0,2.0,27,0.00,,,0.00,1709.00,VWS V14.01,2013-02-09 19:50:00,
2013-02-09 14:51:00,52.2,20.1,30.26,North,0,4.0,7.0,28,0.00,,,0.00,1709.00,VWS V14.01,2013-02-09 19:51:00,
2013-02-09 14:52:00,52.1,20.0,30.26,NNE,22,2.0,6.0,28,0.00,,,0.00,1709.00,VWS V14.01,2013-02-09 19:52:00,
2013-02-09 14:53:00,52.1,20.0,30.25,North,0,3.0,5.0,28,0.00,,,0.00,1710.00,VWS V14.01,2013-02-09 19:53:00,
2013-02-09 14:54:00,52.1,20.0,30.26,NNW,338,1.0,3.0,28,0.00,,,0.00,1710.00,VWS V14.01,2013-02-09 19:54:00,
2013-02-09 14:55:00,52.0,19.9,30.26,West,270,2.0,4.0,28,0.00,,,0.00,1712.00,VWS V14.01,2013-02-09 19:55:00,
2013-02-09 14:56:00,52.0,19.1,30.26,WNW,292,2.0,4.0,27,0.00,,,0.00,1712.00,VWS V14.01,2013-02-09 19:56:00,
2013-02-09 14:57:00,52.0,20.8,30.25,NNW,338,3.0,4.0,29,0.00,,,0.00,1712.00,VWS V14.01,2013-02-09 19:57:00,
2013-02-09 14:58:00,52.1,20.8,30.25,NNW,338,2.0,3.0,29,0.00,,,0.00,1712.00,VWS V14.01,2013-02-09 19:58:00,
2013-02-09 14:59:00,52.1,20.0,30.25,NW,315,2.0,4.0,28,0.00,,,0.00,1710.00,VWS V14.01,2013-02-09 19:59:00,
2013-02-09 15:00:00,52.1,20.0,30.25,NW,315,4.0,5.0,28,0.00,,,0.00,1710.00,VWS V14.01,2013-02-09 20:00:00,
2013-02-09 15:01:00,52.1,20.0,30.25,NW,315,4.0,6.0,28,0.00,,,0.00,1714.00,VWS V14.01,2013-02-09 20:01:00,
2013-02-09 15:02:00,52.1,20.0,30.25,WSW,248,4.0,10.0,28,0.00,,,0.00,1719.00,VWS V14.01,2013-02-09 20:02:00,
2013-02-09 15:03:00,52.1,20.0,30.25,West,270,3.0,5.0,28,0.00,,,0.00,1723.00,VWS V14.01,2013-02-09 20:03:00,
2013-02-09 15:04:00,52.1,20.0,30.25,West,270,2.0,4.0,28,0.00,,,0.00,1721.00,VWS V14.01,2013-02-09 20:04:00,
2013-02-09 15:05:00,52.1,20.0,30.25,NW,315,2.0,3.0,28,0.00,,,0.00,1718.00,VWS V14.01,2013-02-09 20:05:00,
2013-02-09 15:06:00,52.1,20.0,30.25,WSW,248,5.0,8.0,28,0.00,,,0.00,1714.00,VWS V14.01,2013-02-09 20:06:00,
2013-02-09 15:07:00,52.1,19.2,30.25,WNW,292,5.0,10.0,27,0.00,,,0.00,1714.00,VWS V14.01,2013-02-09 20:07:00,
2013-02-09 15:08:00,52.1,20.0,30.25,NW,315,1.0,3.0,28,0.00,,,0.00,1703.00,VWS V14.01,2013-02-09 20:08:00,
2013-02-09 15:09:00,52.0,19.9,30.25,NW,315,0.0,2.0,28,0.00,,,0.00,1702.00,VWS V14.01,2013-02-09 20:09:00,
2013-02-09 15:10:00,52.0,19.9,30.25,NW,315,0.0,1.0,28,0.00,,,0.00,1703.00,VWS V14.01,2013-02-09 20:10:00,
2013-02-09 15:11:00,52.0,19.9,30.25,West,270,3.0,4.0,28,0.00,,,0.00,1699.00,VWS V14.01,2013-02-09 20:11:00,
2013-02-09 15:12:00,52.0,19.9,30.25,WSW,248,3.0,5.0,28,0.00,,,0.00,1698.00,VWS V14.01,2013-02-09 20:12:00,
2013-02-09 15:13:00,52.0,20.8,30.26,WSW,248,2.0,6.0,29,0.00,,,0.00,1696.00,VWS V14.01,2013-02-09 20:13:00,
2013-02-09 15:14:00,52.1,20.0,30.26,West,270,3.0,5.0,28,0.00,,,0.00,1689.00,VWS V14.01,2013-02-09 20:14:00,
2013-02-09 15:15:00,52.1,20.0,30.26,SW,225,1.0,2.0,28,0.00,,,0.00,1688.00,VWS V14.01,2013-02-09 20:15:00,
2013-02-09 15:16:00,52.1,20.8,30.26,West,270,2.0,3.0,29,0.00,,,0.00,1691.00,VWS V14.01,2013-02-09 20:16:00,
2013-02-09 15:17:00,52.2,20.1,30.26,West,270,2.0,3.0,28,0.00,,,0.00,1692.00,VWS V14.01,2013-02-09 20:17:00,
2013-02-09 15:18:00,52.3,20.2,30.25,NNE,22,2.0,4.0,28,0.00,,,0.00,1689.00,VWS V14.01,2013-02-09 20:18:00,
2013-02-09 15:19:00,52.2,19.2,30.25,NNE,22,2.0,5.0,27,0.00,,,0.00,1689.00,VWS V14.01,2013-02-09 20:19:00,
2013-02-09 15:20:00,52.2,20.9,30.25,NNE,22,2.0,3.0,29,0.00,,,0.00,1691.00,VWS V14.01,2013-02-09 20:20:00,
2013-02-09 15:21:00,52.2,20.1,30.25,NNE,22,2.0,3.0,28,0.00,,,0.00,1691.00,VWS V14.01,2013-02-09 20:21:00,
2013-02-09 15:23:00,52.2,20.1,30.25,West,270,6.0,11.0,28,0.00,,,0.00,1684.00,VWS V14.01,2013-02-09 20:23:00,
2013-02-09 15:24:00,52.2,20.1,30.25,WSW,248,5.0,10.0,28,0.00,,,0.00,1679.00,VWS V14.01,2013-02-09 20:24:00,
2013-02-09 15:25:00,52.3,20.2,30.25,West,270,7.0,11.0,28,0.00,,,0.00,1679.00,VWS V14.01,2013-02-09 20:25:00,
2013-02-09 15:26:00,52.3,19.3,30.25,West,270,5.0,10.0,27,0.00,,,0.00,1672.00,VWS V14.01,2013-02-09 20:26:00,
2013-02-09 15:27:00,52.3,20.2,30.25,WNW,292,3.0,7.0,28,0.00,,,0.00,1673.00,VWS V14.01,2013-02-09 20:27:00,
2013-02-09 15:28:00,52.3,20.2,30.25,WNW,292,1.0,2.0,28,0.00,,,0.00,1682.00,VWS V14.01,2013-02-09 20:28:00,
2013-02-09 15:29:00,52.4,20.3,30.25,NNE,22,2.0,5.0,28,0.00,,,0.00,1683.00,VWS V14.01,2013-02-09 20:29:00,
2013-02-09 15:30:00,52.4,20.3,30.25,NW,315,2.0,3.0,28,0.00,,,0.00,1680.00,VWS V14.01,2013-02-09 20:30:00,
2013-02-09 15:31:00,52.4,20.3,30.25,NW,315,1.0,3.0,28,0.00,,,0.00,1670.00,VWS V14.01,2013-02-09 20:31:00,
2013-02-09 15:32:00,52.4,21.1,30.25,SW,225,1.0,4.0,29,0.00,,,0.00,1663.00,VWS V14.01,2013-02-09 20:32:00,
2013-02-09 15:33:00,52.5,20.4,30.25,WNW,292,2.0,3.0,28,0.00,,,0.00,1663.00,VWS V14.01,2013-02-09 20:33:00,
2013-02-09 15:34:00,52.5,19.5,30.25,NNW,338,1.0,3.0,27,0.00,,,0.00,1678.00,VWS V14.01,2013-02-09 20:34:00,
2013-02-09 15:35:00,52.5,20.4,30.25,NNW,338,1.0,3.0,28,0.00,,,0.00,1682.00,VWS V14.01,2013-02-09 20:35:00,
2013-02-09 15:36:00,52.5,19.5,30.25,NW,315,3.0,4.0,27,0.00,,,0.00,1684.00,VWS V14.01,2013-02-09 20:36:00,
2013-02-09 15:37:00,52.5,19.5,30.25,NW,315,3.0,5.0,27,0.00,,,0.00,1682.00,VWS V14.01,2013-02-09 20:37:00,
2013-02-09 15:38:00,52.5,19.5,30.25,NW,315,2.0,3.0,27,0.00,,,0.00,1679.00,VWS V14.01,2013-02-09 20:38:00,
2013-02-09 15:39:00,52.5,19.5,30.25,NNW,338,2.0,3.0,27,0.00,,,0.00,1670.00,VWS V14.01,2013-02-09 20:39:00,
2013-02-09 15:40:00,52.5,20.4,30.25,NNW,338,1.0,3.0,28,0.00,,,0.00,1663.00,VWS V14.01,2013-02-09 20:40:00,
2013-02-09 15:41:00,52.5,20.4,30.25,NW,315,3.0,4.0,28,0.00,,,0.00,1658.00,VWS V14.01,2013-02-09 20:41:00,
2013-02-09 15:42:00,52.5,18.6,30.25,NW,315,2.0,3.0,26,0.00,,,0.00,1658.00,VWS V14.01,2013-02-09 20:42:00,
2013-02-09 15:43:00,52.5,18.6,30.25,NW,315,2.0,4.0,26,0.00,,,0.00,1665.00,VWS V14.01,2013-02-09 20:43:00,
2013-02-09 15:44:00,52.4,18.5,30.25,NW,315,2.0,3.0,26,0.00,,,0.00,1673.00,VWS V14.01,2013-02-09 20:44:00,
2013-02-09 15:45:00,52.4,18.5,30.25,NW,315,1.0,3.0,26,0.00,,,0.00,1675.00,VWS V14.01,2013-02-09 20:45:00,
2013-02-09 15:46:00,52.3,18.5,30.25,West,270,2.0,4.0,26,0.00,,,0.00,1679.00,VWS V14.01,2013-02-09 20:46:00,
2013-02-09 15:47:00,52.3,19.3,30.25,NNW,338,1.0,3.0,27,0.00,,,0.00,1680.00,VWS V14.01,2013-02-09 20:47:00,
2013-02-09 15:48:00,52.3,19.3,30.25,NNW,338,1.0,2.0,27,0.00,,,0.00,1675.00,VWS V14.01,2013-02-09 20:48:00,
2013-02-09 15:49:00,52.4,20.3,30.25,NNW,338,1.0,3.0,28,0.00,,,0.00,1675.00,VWS V14.01,2013-02-09 20:49:00,
2013-02-09 15:50:00,52.4,21.1,30.25,NW,315,2.0,4.0,29,0.00,,,0.00,1673.00,VWS V14.01,2013-02-09 20:50:00,
2013-02-09 15:51:00,52.5,20.4,30.25,WNW,292,2.0,4.0,28,0.00,,,0.00,1673.00,VWS V14.01,2013-02-09 20:51:00,
2013-02-09 15:52:00,52.6,19.6,30.25,WNW,292,1.0,2.0,27,0.00,,,0.00,1686.00,VWS V14.01,2013-02-09 20:52:00,
2013-02-09 15:53:00,52.7,20.5,30.25,WNW,292,3.0,4.0,28,0.00,,,0.00,1688.00,VWS V14.01,2013-02-09 20:53:00,
2013-02-09 15:54:00,52.7,19.7,30.25,NW,315,1.0,2.0,27,0.00,,,0.00,1684.00,VWS V14.01,2013-02-09 20:54:00,
2013-02-09 15:55:00,52.8,19.8,30.25,West,270,3.0,6.0,27,0.00,,,0.00,1670.00,VWS V14.01,2013-02-09 20:55:00,
2013-02-09 15:56:00,52.8,19.8,30.25,West,270,1.0,3.0,27,0.00,,,0.00,1665.00,VWS V14.01,2013-02-09 20:56:00,
2013-02-09 15:57:00,52.9,20.7,30.25,WSW,248,3.0,5.0,28,0.00,,,0.00,1661.00,VWS V14.01,2013-02-09 20:57:00,
2013-02-09 15:58:00,53.1,20.0,30.25,WSW,248,3.0,6.0,27,0.00,,,0.00,1664.00,VWS V14.01,2013-02-09 20:58:00,
2013-02-09 15:59:00,53.1,20.0,30.25,WNW,292,2.0,4.0,27,0.00,,,0.00,1666.00,VWS V14.01,2013-02-09 20:59:00,
2013-02-09 16:00:00,53.2,20.1,30.25,WNW,292,1.0,2.0,27,0.00,,,0.00,1666.00,VWS V14.01,2013-02-09 21:00:00,
2013-02-09 16:01:00,53.3,19.3,30.25,WSW,248,3.0,6.0,26,0.00,,,0.00,1670.00,VWS V14.01,2013-02-09 21:01:00,
2013-02-09 16:02:00,53.3,19.3,30.25,WSW,248,1.0,2.0,26,0.00,,,0.00,1672.00,VWS V14.01,2013-02-09 21:02:00,
2013-02-09 16:03:00,53.4,20.3,30.25,NNW,338,1.0,2.0,27,0.00,,,0.00,1675.00,VWS V14.01,2013-02-09 21:03:00,
2013-02-09 16:04:00,53.5,19.5,30.26,WSW,248,1.0,3.0,26,0.00,,,0.00,1681.00,VWS V14.01,2013-02-09 21:04:00,
2013-02-09 16:05:00,53.5,20.4,30.26,WSW,248,0.0,1.0,27,0.00,,,0.00,1684.00,VWS V14.01,2013-02-09 21:05:00,
2013-02-09 16:06:00,53.5,19.5,30.26,WSW,248,1.0,3.0,26,0.00,,,0.00,1688.00,VWS V14.01,2013-02-09 21:06:00,
2013-02-09 16:07:00,53.6,19.6,30.26,WSW,248,3.0,4.0,26,0.00,,,0.00,1691.00,VWS V14.01,2013-02-09 21:07:00,
2013-02-09 16:08:00,53.6,19.6,30.26,WSW,248,1.0,3.0,26,0.00,,,0.00,1693.00,VWS V14.01,2013-02-09 21:08:00,
2013-02-09 16:09:00,53.6,20.5,30.26,WSW,248,1.0,2.0,27,0.00,,,0.00,1693.00,VWS V14.01,2013-02-09 21:09:00,
2013-02-09 16:10:00,53.7,20.5,30.26,WSW,248,0.0,1.0,27,0.00,,,0.00,1695.00,VWS V14.01,2013-02-09 21:10:00,
2013-02-09 16:11:00,53.7,20.5,30.26,NNW,338,1.0,4.0,27,0.00,,,0.00,1696.00,VWS V14.01,2013-02-09 21:11:00,
2013-02-09 16:12:00,53.7,20.5,30.26,NNW,338,2.0,3.0,27,0.00,,,0.00,1698.00,VWS V14.01,2013-02-09 21:12:00,
2013-02-09 16:13:00,53.7,20.5,30.26,WNW,292,1.0,3.0,27,0.00,,,0.00,1700.00,VWS V14.01,2013-02-09 21:13:00,
2013-02-09 16:14:00,53.7,20.5,30.26,West,270,2.0,6.0,27,0.00,,,0.00,1702.00,VWS V14.01,2013-02-09 21:14:00,
2013-02-09 16:15:00,53.7,20.5,30.25,West,270,4.0,6.0,27,0.00,,,0.00,1703.00,VWS V14.01,2013-02-09 21:15:00,
2013-02-09 16:16:00,53.7,19.6,30.25,West,270,3.0,6.0,26,0.00,,,0.00,1705.00,VWS V14.01,2013-02-09 21:16:00,
2013-02-09 16:17:00,53.8,20.6,30.26,NW,315,2.0,3.0,27,0.00,,,0.00,1705.00,VWS V14.01,2013-02-09 21:17:00,
2013-02-09 16:18:00,53.8,20.6,30.26,WNW,292,2.0,2.0,27,0.00,,,0.00,1705.00,VWS V14.01,2013-02-09 21:18:00,
2013-02-09 16:19:00,53.8,19.7,30.26,WNW,292,1.0,2.0,26,0.00,,,0.00,1705.00,VWS V14.01,2013-02-09 21:19:00,
2013-02-09 16:20:00,53.8,19.7,30.26,WNW,292,1.0,3.0,26,0.00,,,0.00,1705.00,VWS V14.01,2013-02-09 21:20:00,
2013-02-09 16:21:00,53.7,19.6,30.26,WNW,292,2.0,3.0,26,0.00,,,0.00,1707.00,VWS V14.01,2013-02-09 21:21:00,
2013-02-09 16:22:00,53.7,19.6,30.26,NW,315,2.0,3.0,26,0.00,,,0.00,1709.00,VWS V14.01,2013-02-09 21:22:00,
2013-02-09 16:23:00,53.7,20.5,30.26,NW,315,2.0,4.0,27,0.00,,,0.00,1707.00,VWS V14.01,2013-02-09 21:23:00,
2013-02-09 16:24:00,53.6,19.6,30.26,NW,315,3.0,6.0,26,0.00,,,0.00,1707.00,VWS V14.01,2013-02-09 21:24:00,
2013-02-09 16:25:00,53.6,20.5,30.26,West,270,2.0,6.0,27,0.00,,,0.00,1709.00,VWS V14.01,2013-02-09 21:25:00,
2013-02-09 16:26:00,53.6,20.5,30.26,WSW,248,3.0,6.0,27,0.00,,,0.00,1710.00,VWS V14.01,2013-02-09 21:26:00,
2013-02-09 16:27:00,53.6,19.6,30.26,WSW,248,2.0,5.0,26,0.00,,,0.00,1709.00,VWS V14.01,2013-02-09 21:27:00,
2013-02-09 16:28:00,53.7,20.5,30.26,West,270,2.0,7.0,27,0.00,,,0.00,1709.00,VWS V14.01,2013-02-09 21:28:00,
2013-02-09 16:29:00,53.7,19.6,30.26,West,270,6.0,11.0,26,0.00,,,0.00,1709.00,VWS V14.01,2013-02-09 21:29:00,
2013-02-09 16:30:00,53.7,19.6,30.26,West,270,4.0,6.0,26,0.00,,,0.00,1707.00,VWS V14.01,2013-02-09 21:30:00,
2013-02-09 16:31:00,53.7,19.6,30.26,West,270,3.0,5.0,26,0.00,,,0.00,1705.00,VWS V14.01,2013-02-09 21:31:00,
2013-02-09 16:32:00,53.7,19.6,30.26,WSW,248,5.0,7.0,26,0.00,,,0.00,1703.00,VWS V14.01,2013-02-09 21:32:00,
2013-02-09 16:33:00,53.7,19.6,30.26,West,270,6.0,9.0,26,0.00,,,0.00,1701.00,VWS V14.01,2013-02-09 21:33:00,
2013-02-09 16:34:00,53.7,19.6,30.26,West,270,2.0,4.0,26,0.00,,,0.00,1700.00,VWS V14.01,2013-02-09 21:34:00,
2013-02-09 16:35:00,53.7,20.5,30.26,WSW,248,3.0,5.0,27,0.00,,,0.00,1696.00,VWS V14.01,2013-02-09 21:35:00,
2013-02-09 16:36:00,53.7,20.5,30.26,WNW,292,1.0,2.0,27,0.00,,,0.00,1695.00,VWS V14.01,2013-02-09 21:36:00,
2013-02-09 16:37:00,53.6,19.6,30.26,NW,315,3.0,6.0,26,0.00,,,0.00,1695.00,VWS V14.01,2013-02-09 21:37:00,
2013-02-09 16:38:00,53.6,19.6,30.26,WNW,292,2.0,3.0,26,0.00,,,0.00,1695.00,VWS V14.01,2013-02-09 21:38:00,
2013-02-09 16:39:00,53.6,20.5,30.26,WNW,292,2.0,3.0,27,0.00,,,0.00,1695.00,VWS V14.01,2013-02-09 21:39:00,
2013-02-09 16:40:00,53.5,20.4,30.26,WNW,292,2.0,6.0,27,0.00,,,0.00,1696.00,VWS V14.01,2013-02-09 21:40:00,
2013-02-09 16:41:00,53.5,20.4,30.26,WSW,248,4.0,5.0,27,0.00,,,0.00,1698.00,VWS V14.01,2013-02-09 21:41:00,
2013-02-09 16:42:00,53.5,19.5,30.26,WSW,248,4.0,5.0,26,0.00,,,0.00,1698.00,VWS V14.01,2013-02-09 21:42:00,
2013-02-09 16:43:00,53.4,19.4,30.26,West,270,2.0,3.0,26,0.00,,,0.00,1696.00,VWS V14.01,2013-02-09 21:43:00,
2013-02-09 16:44:00,53.4,20.3,30.26,West,270,0.0,1.0,27,0.00,,,0.00,1696.00,VWS V14.01,2013-02-09 21:44:00,
2013-02-09 16:45:00,53.5,20.4,30.26,West,270,0.0,1.0,27,0.00,,,0.00,1696.00,VWS V14.01,2013-02-09 21:45:00,
2013-02-09 16:46:00,53.5,20.4,30.26,West,270,0.0,1.0,27,0.00,,,0.00,1698.00,VWS V14.01,2013-02-09 21:46:00,
2013-02-09 16:47:00,53.5,20.4,30.26,West,270,2.0,3.0,27,0.00,,,0.00,1700.00,VWS V14.01,2013-02-09 21:47:00,
2013-02-09 16:48:00,53.6,20.5,30.26,West,270,2.0,3.0,27,0.00,,,0.00,1700.00,VWS V14.01,2013-02-09 21:48:00,
2013-02-09 16:49:00,53.6,20.5,30.26,West,270,2.0,3.0,27,0.00,,,0.00,1702.00,VWS V14.01,2013-02-09 21:49:00,
2013-02-09 16:50:00,53.6,19.6,30.26,NNW,338,1.0,2.0,26,0.00,,,0.00,1702.00,VWS V14.01,2013-02-09 21:50:00,
2013-02-09 16:51:00,53.6,20.5,30.26,NNW,338,1.0,2.0,27,0.00,,,0.00,1703.00,VWS V14.01,2013-02-09 21:51:00,
2013-02-09 16:52:00,53.6,20.5,30.26,NNW,338,0.0,2.0,27,0.00,,,0.00,1705.00,VWS V14.01,2013-02-09 21:52:00,
2013-02-09 16:53:00,53.5,20.4,30.26,NNW,338,1.0,2.0,27,0.00,,,0.00,1705.00,VWS V14.01,2013-02-09 21:53:00,
2013-02-09 16:54:00,53.5,19.5,30.26,NNW,338,0.0,1.0,26,0.00,,,0.00,1707.00,VWS V14.01,2013-02-09 21:54:00,
2013-02-09 16:55:00,53.4,19.4,30.27,NNW,338,1.0,2.0,26,0.00,,,0.00,1709.00,VWS V14.01,2013-02-09 21:55:00,
2013-02-09 16:56:00,53.4,19.4,30.27,West,270,2.0,4.0,26,0.00,,,0.00,1711.00,VWS V14.01,2013-02-09 21:56:00,
2013-02-09 16:57:00,53.3,19.3,30.27,West,270,0.0,1.0,26,0.00,,,0.00,1716.00,VWS V14.01,2013-02-09 21:57:00,
2013-02-09 16:58:00,53.3,19.3,30.27,West,270,0.0,1.0,26,0.00,,,0.00,1721.00,VWS V14.01,2013-02-09 21:58:00,
2013-02-09 16:59:00,53.2,19.2,30.27,West,270,1.0,2.0,26,0.00,,,0.00,1724.00,VWS V14.01,2013-02-09 21:59:00,
2013-02-09 17:00:00,53.2,19.2,30.27,West,270,2.0,3.0,26,0.00,,,0.00,1724.00,VWS V14.01,2013-02-09 22:00:00,
2013-02-09 17:01:00,53.1,20.0,30.27,West,270,1.0,2.0,27,0.00,,,0.00,1717.00,VWS V14.01,2013-02-09 22:01:00,
2013-02-09 17:02:00,53.0,20.8,30.27,West,270,1.0,3.0,28,0.00,,,0.00,1716.00,VWS V14.01,2013-02-09 22:02:00,
2013-02-09 17:03:00,52.9,19.0,30.27,West,270,1.0,2.0,26,0.00,,,0.00,1716.00,VWS V14.01,2013-02-09 22:03:00,
2013-02-09 17:04:00,52.9,19.0,30.27,West,270,1.0,2.0,26,0.00,,,0.00,1716.00,VWS V14.01,2013-02-09 22:04:00,
2013-02-09 17:05:00,52.8,18.9,30.27,West,270,1.0,3.0,26,0.00,,,0.00,1712.00,VWS V14.01,2013-02-09 22:05:00,
2013-02-09 17:06:00,52.8,18.9,30.27,NNW,338,2.0,3.0,26,0.00,,,0.00,1712.00,VWS V14.01,2013-02-09 22:06:00,
2013-02-09 17:07:00,52.8,18.9,30.27,NW,315,1.0,3.0,26,0.00,,,0.00,1712.00,VWS V14.01,2013-02-09 22:07:00,
2013-02-09 17:08:00,52.7,18.8,30.27,NW,315,1.0,2.0,26,0.00,,,0.00,1705.00,VWS V14.01,2013-02-09 22:08:00,
2013-02-09 17:09:00,52.6,18.7,30.27,NW,315,0.0,1.0,26,0.00,,,0.00,1703.00,VWS V14.01,2013-02-09 22:09:00,
2013-02-09 17:10:00,52.6,18.7,30.27,NW,315,1.0,2.0,26,0.00,,,0.00,1703.00,VWS V14.01,2013-02-09 22:10:00,
2013-02-09 17:11:00,52.6,18.7,30.26,NW,315,1.0,2.0,26,0.00,,,0.00,1703.00,VWS V14.01,2013-02-09 22:11:00,
2013-02-09 17:12:00,52.5,21.2,30.26,NW,315,0.0,1.0,29,0.00,,,0.00,1700.00,VWS V14.01,2013-02-09 22:12:00,
2013-02-09 17:13:00,52.5,21.2,30.26,NW,315,0.0,1.0,29,0.00,,,0.00,1698.00,VWS V14.01,2013-02-09 22:13:00,
2013-02-09 17:14:00,52.4,20.3,30.26,NW,315,0.0,2.0,28,0.00,,,0.00,1698.00,VWS V14.01,2013-02-09 22:14:00,
2013-02-09 17:15:00,52.4,20.3,30.26,NW,315,0.0,1.0,28,0.00,,,0.00,1696.00,VWS V14.01,2013-02-09 22:15:00,
2013-02-09 17:16:00,52.3,21.0,30.26,NW,315,0.0,1.0,29,0.00,,,0.00,1696.00,VWS V14.01,2013-02-09 22:16:00,
2013-02-09 17:17:00,52.2,20.1,30.26,NW,315,0.0,1.0,28,0.00,,,0.00,1695.00,VWS V14.01,2013-02-09 22:17:00,
2013-02-09 17:18:00,52.2,20.1,30.26,NW,315,0.0,0.0,28,0.00,,,0.00,1695.00,VWS V14.01,2013-02-09 22:18:00,
2013-02-09 17:19:00,52.1,20.0,30.26,NW,315,0.0,0.0,28,0.00,,,0.00,1693.00,VWS V14.01,2013-02-09 22:19:00,
2013-02-09 17:20:00,52.0,19.9,30.26,NW,315,1.0,3.0,28,0.00,,,0.00,1691.00,VWS V14.01,2013-02-09 22:20:00,
2013-02-09 17:21:00,51.9,19.8,30.26,NW,315,1.0,2.0,28,0.00,,,0.00,1689.00,VWS V14.01,2013-02-09 22:21:00,
2013-02-09 17:22:00,51.9,19.8,30.26,NW,315,2.0,3.0,28,0.00,,,0.00,1688.00,VWS V14.01,2013-02-09 22:22:00,
2013-02-09 17:23:00,51.9,19.8,30.26,NW,315,1.0,2.0,28,0.00,,,0.00,1689.00,VWS V14.01,2013-02-09 22:23:00,
2013-02-09 17:24:00,51.8,19.8,30.26,NW,315,0.0,1.0,28,0.00,,,0.00,1688.00,VWS V14.01,2013-02-09 22:24:00,
2013-02-09 17:25:00,51.8,20.6,30.26,NW,315,1.0,2.0,29,0.00,,,0.00,1688.00,VWS V14.01,2013-02-09 22:25:00,
2013-02-09 17:26:00,51.8,19.8,30.26,NW,315,0.0,1.0,28,0.00,,,0.00,1688.00,VWS V14.01,2013-02-09 22:26:00,
2013-02-09 17:27:00,51.7,19.7,30.26,NW,315,0.0,1.0,28,0.00,,,0.00,1686.00,VWS V14.01,2013-02-09 22:27:00,
2013-02-09 17:28:00,51.7,19.7,30.26,NW,315,0.0,1.0,28,0.00,,,0.00,1686.00,VWS V14.01,2013-02-09 22:28:00,
2013-02-09 17:29:00,51.7,19.7,30.26,NW,315,0.0,0.0,28,0.00,,,0.00,1686.00,VWS V14.01,2013-02-09 22:29:00,
2013-02-09 17:30:00,51.6,20.4,30.26,NW,315,0.0,1.0,29,0.00,,,0.00,1686.00,VWS V14.01,2013-02-09 22:30:00,
2013-02-09 17:31:00,51.6,20.4,30.26,NW,315,0.0,1.0,29,0.00,,,0.00,1686.00,VWS V14.01,2013-02-09 22:31:00,
2013-02-09 17:32:00,51.5,19.5,30.26,NW,315,0.0,0.0,28,0.00,,,0.00,1686.00,VWS V14.01,2013-02-09 22:32:00,
2013-02-09 17:33:00,51.5,20.3,30.27,NW,315,0.0,0.0,29,0.00,,,0.00,1686.00,VWS V14.01,2013-02-09 22:33:00,
2013-02-09 17:34:00,51.5,20.3,30.27,NW,315,0.0,1.0,29,0.00,,,0.00,1684.00,VWS V14.01,2013-02-09 22:34:00,
2013-02-09 17:35:00,51.4,20.2,30.27,NW,315,0.0,1.0,29,0.00,,,0.00,1684.00,VWS V14.01,2013-02-09 22:35:00,
2013-02-09 17:36:00,51.3,20.1,30.27,NW,315,0.0,0.0,29,0.00,,,0.00,1684.00,VWS V14.01,2013-02-09 22:36:00,
2013-02-09 17:37:00,51.2,20.0,30.27,NW,315,0.0,0.0,29,0.00,,,0.00,1683.00,VWS V14.01,2013-02-09 22:37:00,
2013-02-09 17:38:00,51.2,20.0,30.27,NW,315,0.0,0.0,29,0.00,,,0.00,1682.00,VWS V14.01,2013-02-09 22:38:00,
2013-02-09 17:39:00,51.1,20.0,30.27,NW,315,0.0,0.0,29,0.00,,,0.00,1682.00,VWS V14.01,2013-02-09 22:39:00,
2013-02-09 17:40:00,51.0,19.9,30.27,NW,315,0.0,1.0,29,0.00,,,0.00,1682.00,VWS V14.01,2013-02-09 22:40:00,
2013-02-09 17:41:00,51.0,20.7,30.27,NW,315,0.0,1.0,30,0.00,,,0.00,1682.00,VWS V14.01,2013-02-09 22:41:00,
2013-02-09 17:42:00,50.9,20.6,30.26,NW,315,0.0,1.0,30,0.00,,,0.00,1682.00,VWS V14.01,2013-02-09 22:42:00,
2013-02-09 17:43:00,50.8,20.5,30.27,NW,315,0.0,1.0,30,0.00,,,0.00,1682.00,VWS V14.01,2013-02-09 22:43:00,
2013-02-09 17:44:00,50.7,20.4,30.27,NW,315,0.0,0.0,30,0.00,,,0.00,1682.00,VWS V14.01,2013-02-09 22:44:00,
2013-02-09 17:45:00,50.7,20.4,30.26,NW,315,0.0,1.0,30,0.00,,,0.00,1684.00,VWS V14.01,2013-02-09 22:45:00,
2013-02-09 17:46:00,50.6,21.1,30.26,NW,315,0.0,0.0,31,0.00,,,0.00,1684.00,VWS V14.01,2013-02-09 22:46:00,
2013-02-09 17:47:00,50.5,21.0,30.26,NW,315,0.0,0.0,31,0.00,,,0.00,1682.00,VWS V14.01,2013-02-09 22:47:00,
2013-02-09 17:48:00,50.5,21.0,30.26,NW,315,0.0,0.0,31,0.00,,,0.00,1684.00,VWS V14.01,2013-02-09 22:48:00,
2013-02-09 17:49:00,50.4,20.9,30.26,NW,315,0.0,0.0,31,0.00,,,0.00,1684.00,VWS V14.01,2013-02-09 22:49:00,
2013-02-09 17:50:00,50.3,20.8,30.27,NW,315,0.0,0.0,31,0.00,,,0.00,1686.00,VWS V14.01,2013-02-09 22:50:00,
2013-02-09 17:51:00,50.2,20.0,30.27,NW,315,0.0,0.0,30,0.00,,,0.00,1686.00,VWS V14.01,2013-02-09 22:51:00,
2013-02-09 17:52:00,50.1,19.9,30.27,NW,315,0.0,0.0,30,0.00,,,0.00,1686.00,VWS V14.01,2013-02-09 22:52:00,
2013-02-09 17:53:00,50.1,20.7,30.27,NW,315,0.0,0.0,31,0.00,,,0.00,1686.00,VWS V14.01,2013-02-09 22:53:00,
2013-02-09 17:54:00,50.0,20.6,30.27,NW,315,0.0,0.0,31,0.00,,,0.00,1688.00,VWS V14.01,2013-02-09 22:54:00,
2013-02-09 17:55:00,49.9,20.5,30.27,NW,315,0.0,0.0,31,0.00,,,0.00,1688.00,VWS V14.01,2013-02-09 22:55:00,
2013-02-09 17:56:00,49.9,20.5,30.27,NW,315,0.0,0.0,31,0.00,,,0.00,1688.00,VWS V14.01,2013-02-09 22:56:00,
2013-02-09 17:57:00,49.8,20.4,30.27,NW,315,0.0,0.0,31,0.00,,,0.00,1688.00,VWS V14.01,2013-02-09 22:57:00,
2013-02-09 17:58:00,49.7,21.8,30.27,NW,315,0.0,0.0,33,0.00,,,0.00,1689.00,VWS V14.01,2013-02-09 22:58:00,
2013-02-09 17:59:00,49.7,21.1,30.27,NW,315,0.0,0.0,32,0.00,,,0.00,1689.00,VWS V14.01,2013-02-09 22:59:00,
2013-02-09 18:00:00,49.6,20.2,30.27,NW,315,0.0,0.0,31,0.00,,,0.00,1689.00,VWS V14.01,2013-02-09 23:00:00,
2013-02-09 18:01:00,49.6,20.2,30.27,NW,315,0.0,0.0,31,0.00,,,0.00,1690.00,VWS V14.01,2013-02-09 23:01:00,
2013-02-09 18:02:00,49.5,20.9,30.27,NW,315,0.0,0.0,32,0.00,,,0.00,1691.00,VWS V14.01,2013-02-09 23:02:00,
2013-02-09 18:03:00,49.4,20.8,30.27,NW,315,0.0,0.0,32,0.00,,,0.00,1691.00,VWS V14.01,2013-02-09 23:03:00,
2013-02-09 18:04:00,49.3,20.7,30.27,NW,315,0.0,0.0,32,0.00,,,0.00,1691.00,VWS V14.01,2013-02-09 23:04:00,
2013-02-09 18:05:00,49.2,21.3,30.27,NW,315,0.0,0.0,33,0.00,,,0.00,1691.00,VWS V14.01,2013-02-09 23:05:00,
2013-02-09 18:06:00,49.1,20.5,30.27,NW,315,0.0,0.0,32,0.00,,,0.00,1693.00,VWS V14.01,2013-02-09 23:06:00,
2013-02-09 18:07:00,49.0,20.4,30.27,NW,315,0.0,0.0,32,0.00,,,0.00,1693.00,VWS V14.01,2013-02-09 23:07:00,
2013-02-09 18:08:00,48.9,21.1,30.27,NW,315,0.0,0.0,33,0.00,,,0.00,1695.00,VWS V14.01,2013-02-09 23:08:00,
2013-02-09 18:09:00,48.7,21.6,30.27,NW,315,0.0,0.0,34,0.00,,,0.00,1695.00,VWS V14.01,2013-02-09 23:09:00,
2013-02-09 18:10:00,48.6,20.8,30.27,NW,315,0.0,0.0,33,0.00,,,0.00,1696.00,VWS V14.01,2013-02-09 23:10:00,
2013-02-09 18:11:00,48.5,20.7,30.27,NW,315,0.0,0.0,33,0.00,,,0.00,1698.00,VWS V14.01,2013-02-09 23:11:00,
2013-02-09 18:12:00,48.4,21.3,30.27,NW,315,0.0,0.0,34,0.00,,,0.00,1698.00,VWS V14.01,2013-02-09 23:12:00,
2013-02-09 18:13:00,48.3,21.2,30.27,NW,315,0.0,0.0,34,0.00,,,0.00,1698.00,VWS V14.01,2013-02-09 23:13:00,
2013-02-09 18:14:00,48.2,21.2,30.27,NW,315,0.0,0.0,34,0.00,,,0.00,1698.00,VWS V14.01,2013-02-09 23:14:00,
2013-02-09 18:15:00,48.1,21.8,30.27,NW,315,0.0,0.0,35,0.00,,,0.00,1702.00,VWS V14.01,2013-02-09 23:15:00,
2013-02-09 18:16:00,48.0,21.7,30.27,NW,315,0.0,0.0,35,0.00,,,0.00,1698.00,VWS V14.01,2013-02-09 23:16:00,
2013-02-09 18:17:00,47.9,21.6,30.27,NW,315,0.0,0.0,35,0.00,,,0.00,1700.00,VWS V14.01,2013-02-09 23:17:00,
2013-02-09 18:18:00,47.8,21.5,30.27,NW,315,0.0,0.0,35,0.00,,,0.00,1702.00,VWS V14.01,2013-02-09 23:18:00,
2013-02-09 18:19:00,47.7,21.4,30.27,NW,315,0.0,0.0,35,0.00,,,0.00,1702.00,VWS V14.01,2013-02-09 23:19:00,
2013-02-09 18:20:00,47.6,21.3,30.27,NW,315,0.0,0.0,35,0.00,,,0.00,1702.00,VWS V14.01,2013-02-09 23:20:00,
2013-02-09 18:21:00,47.5,21.2,30.27,NW,315,0.0,0.0,35,0.00,,,0.00,1702.00,VWS V14.01,2013-02-09 23:21:00,
2013-02-09 18:22:00,47.4,21.1,30.27,NW,315,0.0,0.0,35,0.00,,,0.00,1702.00,VWS V14.01,2013-02-09 23:22:00,
2013-02-09 18:23:00,47.3,21.0,30.27,NW,315,0.0,0.0,35,0.00,,,0.00,1703.00,VWS V14.01,2013-02-09 23:23:00,
2013-02-09 18:24:00,47.2,21.0,30.27,NW,315,0.0,0.0,35,0.00,,,0.00,1702.00,VWS V14.01,2013-02-09 23:24:00,
2013-02-09 18:25:00,47.1,20.9,30.27,NW,315,0.0,0.0,35,0.00,,,0.00,1703.00,VWS V14.01,2013-02-09 23:25:00,
2013-02-09 18:26:00,47.0,21.5,30.27,NW,315,0.0,0.0,36,0.00,,,0.00,1703.00,VWS V14.01,2013-02-09 23:26:00,
2013-02-09 18:27:00,46.9,20.7,30.27,NW,315,0.0,0.0,35,0.00,,,0.00,1703.00,VWS V14.01,2013-02-09 23:27:00,
2013-02-09 18:28:00,46.8,21.9,30.27,NW,315,0.0,0.0,37,0.00,,,0.00,1703.00,VWS V14.01,2013-02-09 23:28:00,
2013-02-09 18:29:00,46.8,21.9,30.27,NW,315,0.0,0.0,37,0.00,,,0.00,1703.00,VWS V14.01,2013-02-09 23:29:00,
2013-02-09 18:30:00,46.7,21.8,30.28,NW,315,0.0,0.0,37,0.00,,,0.00,1703.00,VWS V14.01,2013-02-09 23:30:00,
2013-02-09 18:31:00,46.6,22.4,30.28,NW,315,0.0,0.0,38,0.00,,,0.00,1702.00,VWS V14.01,2013-02-09 23:31:00,
2013-02-09 18:32:00,46.6,22.4,30.28,NW,315,0.0,0.0,38,0.00,,,0.00,1702.00,VWS V14.01,2013-02-09 23:32:00,
2013-02-09 18:33:00,46.5,22.3,30.28,NW,315,0.0,0.0,38,0.00,,,0.00,1703.00,VWS V14.01,2013-02-09 23:33:00,
2013-02-09 18:34:00,46.5,22.3,30.28,NW,315,0.0,0.0,38,0.00,,,0.00,1703.00,VWS V14.01,2013-02-09 23:34:00,
2013-02-09 18:35:00,46.4,22.8,30.28,NW,315,0.0,0.0,39,0.00,,,0.00,1703.00,VWS V14.01,2013-02-09 23:35:00,
2013-02-09 18:36:00,46.4,22.8,30.28,NW,315,0.0,0.0,39,0.00,,,0.00,1703.00,VWS V14.01,2013-02-09 23:36:00,
2013-02-09 18:37:00,46.4,22.2,30.28,NW,315,0.0,0.0,38,0.00,,,0.00,1703.00,VWS V14.01,2013-02-09 23:37:00,
2013-02-09 18:38:00,46.3,22.7,30.28,NW,315,0.0,0.0,39,0.00,,,0.00,1703.00,VWS V14.01,2013-02-09 23:38:00,
2013-02-09 18:39:00,46.3,22.7,30.28,NW,315,0.0,0.0,39,0.00,,,0.00,1702.00,VWS V14.01,2013-02-09 23:39:00,
2013-02-09 18:40:00,46.2,22.6,30.28,NW,315,0.0,0.0,39,0.00,,,0.00,1702.00,VWS V14.01,2013-02-09 23:40:00,
2013-02-09 18:41:00,46.1,21.9,30.28,NW,315,0.0,0.0,38,0.00,,,0.00,1702.00,VWS V14.01,2013-02-09 23:41:00,
2013-02-09 18:42:00,46.0,21.8,30.28,NW,315,0.0,0.0,38,0.00,,,0.00,1700.00,VWS V14.01,2013-02-09 23:42:00,
2013-02-09 18:43:00,46.0,21.8,30.28,NW,315,0.0,0.0,38,0.00,,,0.00,1698.00,VWS V14.01,2013-02-09 23:43:00,
2013-02-09 18:44:00,45.9,21.7,30.28,NW,315,0.0,0.0,38,0.00,,,0.00,1698.00,VWS V14.01,2013-02-09 23:44:00,
2013-02-09 18:45:00,45.9,22.4,30.28,NW,315,0.0,1.0,39,0.00,,,0.00,1698.00,VWS V14.01,2013-02-09 23:45:00,
2013-02-09 18:46:00,45.8,22.3,30.27,NW,315,0.0,1.0,39,0.00,,,0.00,1698.00,VWS V14.01,2013-02-09 23:46:00,
2013-02-09 18:47:00,45.7,22.2,30.27,NW,315,0.0,1.0,39,0.00,,,0.00,1696.00,VWS V14.01,2013-02-09 23:47:00,
2013-02-09 18:48:00,45.6,22.1,30.27,NW,315,1.0,2.0,39,0.00,,,0.00,1697.00,VWS V14.01,2013-02-09 23:48:00,
2013-02-09 18:49:00,45.5,22.0,30.27,NW,315,0.0,1.0,39,0.00,,,0.00,1696.00,VWS V14.01,2013-02-09 23:49:00,
2013-02-09 18:50:00,45.4,21.3,30.27,NW,315,0.0,1.0,38,0.00,,,0.00,1696.00,VWS V14.01,2013-02-09 23:50:00,
2013-02-09 18:51:00,45.3,21.2,30.27,NW,315,0.0,0.0,38,0.00,,,0.00,1696.00,VWS V14.01,2013-02-09 23:51:00,
2013-02-09 18:52:00,45.2,22.3,30.28,NW,315,0.0,0.0,40,0.00,,,0.00,1696.00,VWS V14.01,2013-02-09 23:52:00,
2013-02-09 18:53:00,45.2,21.7,30.28,NW,315,0.0,0.0,39,0.00,,,0.00,1696.00,VWS V14.01,2013-02-09 23:53:00,
2013-02-09 18:54:00,45.1,21.6,30.28,NW,315,0.0,0.0,39,0.00,,,0.00,1696.00,VWS V14.01,2013-02-09 23:54:00,
2013-02-09 18:55:00,45.0,22.1,30.28,NW,315,0.0,0.0,40,0.00,,,0.00,1695.00,VWS V14.01,2013-02-09 23:55:00,
2013-02-09 18:56:00,45.0,22.1,30.28,NW,315,0.0,0.0,40,0.00,,,0.00,1695.00,VWS V14.01,2013-02-09 23:56:00,
2013-02-09 18:57:00,44.9,22.6,30.28,NW,315,0.0,0.0,41,0.00,,,0.00,1695.00,VWS V14.01,2013-02-09 23:57:00,
2013-02-09 18:58:00,44.8,22.5,30.28,NW,315,0.0,0.0,41,0.00,,,0.00,1695.00,VWS V14.01,2013-02-09 23:58:00,
2013-02-09 18:59:00,44.8,22.5,30.28,NW,315,0.0,0.0,41,0.00,,,0.00,1694.00,VWS V14.01,2013-02-09 23:59:00,
2013-02-09 19:00:00,44.7,22.5,30.28,NW,315,0.0,0.0,41,0.00,,,0.00,1693.00,VWS V14.01,2013-02-10 00:00:00,
2013-02-09 19:01:00,44.7,23.0,30.28,NW,315,0.0,0.0,42,0.00,,,0.00,1689.00,VWS V14.01,2013-02-10 00:01:00,
2013-02-09 19:02:00,44.6,22.9,30.28,NW,315,0.0,0.0,42,0.00,,,0.00,1691.00,VWS V14.01,2013-02-10 00:02:00,
2013-02-09 19:03:00,44.5,22.3,30.28,NW,315,0.0,0.0,41,0.00,,,0.00,1689.00,VWS V14.01,2013-02-10 00:03:00,
2013-02-09 19:04:00,44.5,22.3,30.28,NW,315,0.0,0.0,41,0.00,,,0.00,1689.00,VWS V14.01,2013-02-10 00:04:00,
2013-02-09 19:05:00,44.4,22.8,30.28,NW,315,0.0,0.0,42,0.00,,,0.00,1690.00,VWS V14.01,2013-02-10 00:05:00,
2013-02-09 19:06:00,44.3,22.7,30.28,NW,315,0.0,0.0,42,0.00,,,0.00,1688.00,VWS V14.01,2013-02-10 00:06:00,
2013-02-09 19:07:00,44.2,22.6,30.28,NW,315,0.0,0.0,42,0.00,,,0.00,1686.00,VWS V14.01,2013-02-10 00:07:00,
2013-02-09 19:08:00,44.1,22.5,30.28,NW,315,0.0,0.0,42,0.00,,,0.00,1688.00,VWS V14.01,2013-02-10 00:08:00,
2013-02-09 19:09:00,44.0,23.0,30.28,NW,315,0.0,0.0,43,0.00,,,0.00,1686.00,VWS V14.01,2013-02-10 00:09:00,
2013-02-09 19:10:00,43.8,22.8,30.28,NW,315,0.0,0.0,43,0.00,,,0.00,1688.00,VWS V14.01,2013-02-10 00:10:00,
2013-02-09 19:11:00,43.7,23.2,30.28,NW,315,0.0,0.0,44,0.00,,,0.00,1686.00,VWS V14.01,2013-02-10 00:11:00,
2013-02-09 19:12:00,43.6,23.1,30.28,NW,315,0.0,0.0,44,0.00,,,0.00,1686.00,VWS V14.01,2013-02-10 00:12:00,
2013-02-09 19:13:00,43.4,23.0,30.28,NW,315,0.0,0.0,44,0.00,,,0.00,1684.00,VWS V14.01,2013-02-10 00:13:00,
2013-02-09 19:14:00,43.3,22.9,30.28,NW,315,0.0,1.0,44,0.00,,,0.00,1682.00,VWS V14.01,2013-02-10 00:14:00,
2013-02-09 19:15:00,43.2,22.2,30.28,NW,315,0.0,1.0,43,0.00,,,0.00,1682.00,VWS V14.01,2013-02-10 00:15:00,
2013-02-09 19:16:00,43.1,22.1,30.28,NW,315,0.0,1.0,43,0.00,,,0.00,1682.00,VWS V14.01,2013-02-10 00:16:00,
2013-02-09 19:17:00,43.0,22.0,30.28,NW,315,0.0,0.0,43,0.00,,,0.00,1680.00,VWS V14.01,2013-02-10 00:17:00,
2013-02-09 19:18:00,42.9,22.0,30.28,NW,315,0.0,0.0,43,0.00,,,0.00,1680.00,VWS V14.01,2013-02-10 00:18:00,
2013-02-09 19:19:00,42.9,22.5,30.28,NW,315,0.0,0.0,44,0.00,,,0.00,1679.00,VWS V14.01,2013-02-10 00:19:00,
2013-02-09 19:20:00,42.8,22.4,30.29,NW,315,0.0,0.0,44,0.00,,,0.00,1679.00,VWS V14.01,2013-02-10 00:20:00,
2013-02-09 19:21:00,42.7,22.3,30.29,NW,315,0.0,0.0,44,0.00,,,0.00,1677.00,VWS V14.01,2013-02-10 00:21:00,
2013-02-09 19:22:00,42.7,22.3,30.29,NW,315,0.0,0.0,44,0.00,,,0.00,1677.00,VWS V14.01,2013-02-10 00:22:00,
2013-02-09 19:23:00,42.6,21.7,30.29,NW,315,0.0,0.0,43,0.00,,,0.00,1678.00,VWS V14.01,2013-02-10 00:23:00,
2013-02-09 19:24:00,42.5,21.6,30.29,NW,315,0.0,0.0,43,0.00,,,0.00,1675.00,VWS V14.01,2013-02-10 00:24:00,
2013-02-09 19:25:00,42.4,21.5,30.29,NW,315,0.0,0.0,43,0.00,,,0.00,1675.00,VWS V14.01,2013-02-10 00:25:00,
2013-02-09 19:26:00,42.3,22.0,30.29,NW,315,0.0,0.0,44,0.00,,,0.00,1675.00,VWS V14.01,2013-02-10 00:26:00,
2013-02-09 19:27:00,42.2,22.4,30.29,NW,315,0.0,0.0,45,0.00,,,0.00,1673.00,VWS V14.01,2013-02-10 00:27:00,
2013-02-09 19:28:00,42.1,23.8,30.29,NW,315,0.0,0.0,48,0.00,,,0.00,1673.00,VWS V14.01,2013-02-10 00:28:00,
2013-02-09 19:29:00,41.9,24.1,30.29,NW,315,0.0,0.0,49,0.00,,,0.00,1673.00,VWS V14.01,2013-02-10 00:29:00,
2013-02-09 19:30:00,41.8,24.1,30.30,NW,315,0.0,0.0,49,0.00,,,0.00,1672.00,VWS V14.01,2013-02-10 00:30:00,
2013-02-09 19:31:00,41.6,23.9,30.29,NW,315,0.0,0.0,49,0.00,,,0.00,1672.00,VWS V14.01,2013-02-10 00:31:00,
2013-02-09 19:32:00,41.5,23.8,30.29,NW,315,0.0,0.0,49,0.00,,,0.00,1670.00,VWS V14.01,2013-02-10 00:32:00,
2013-02-09 19:33:00,41.4,24.2,30.30,NW,315,0.0,0.0,50,0.00,,,0.00,1668.00,VWS V14.01,2013-02-10 00:33:00,
2013-02-09 19:34:00,41.3,24.1,30.30,NW,315,0.0,0.0,50,0.00,,,0.00,1668.00,VWS V14.01,2013-02-10 00:34:00,
2013-02-09 19:35:00,41.2,23.5,30.30,NW,315,0.0,0.0,49,0.00,,,0.00,1666.00,VWS V14.01,2013-02-10 00:35:00,
2013-02-09 19:36:00,41.1,23.4,30.30,NW,315,0.0,0.0,49,0.00,,,0.00,1666.00,VWS V14.01,2013-02-10 00:36:00,
2013-02-09 19:37:00,41.1,23.9,30.30,NW,315,0.0,0.0,50,0.00,,,0.00,1663.00,VWS V14.01,2013-02-10 00:37:00,
2013-02-09 19:38:00,41.0,22.8,30.30,NW,315,0.0,0.0,48,0.00,,,0.00,1663.00,VWS V14.01,2013-02-10 00:38:00,
2013-02-09 19:39:00,40.9,23.7,30.30,NW,315,0.0,0.0,50,0.00,,,0.00,1663.00,VWS V14.01,2013-02-10 00:39:00,
2013-02-09 19:40:00,40.9,23.2,30.30,NW,315,0.0,0.0,49,0.00,,,0.00,1665.00,VWS V14.01,2013-02-10 00:40:00,
2013-02-09 19:41:00,40.8,23.1,30.30,NW,315,0.0,0.0,49,0.00,,,0.00,1663.00,VWS V14.01,2013-02-10 00:41:00,
2013-02-09 19:42:00,40.8,22.6,30.30,NW,315,0.0,0.0,48,0.00,,,0.00,1663.00,VWS V14.01,2013-02-10 00:42:00,
2013-02-09 19:43:00,40.8,22.1,30.30,NW,315,0.0,0.0,47,0.00,,,0.00,1663.00,VWS V14.01,2013-02-10 00:43:00,
2013-02-09 19:44:00,40.8,22.6,30.30,NW,315,0.0,0.0,48,0.00,,,0.00,1663.00,VWS V14.01,2013-02-10 00:44:00,
2013-02-09 19:45:00,40.8,23.1,30.30,NW,315,0.0,0.0,49,0.00,,,0.00,1663.00,VWS V14.01,2013-02-10 00:45:00,
2013-02-09 19:46:00,40.9,23.2,30.30,NW,315,0.0,0.0,49,0.00,,,0.00,1663.00,VWS V14.01,2013-02-10 00:46:00,
2013-02-09 19:47:00,40.9,22.7,30.30,NW,315,0.0,0.0,48,0.00,,,0.00,1663.00,VWS V14.01,2013-02-10 00:47:00,
2013-02-09 19:48:00,40.9,22.2,30.30,NW,315,0.0,0.0,47,0.00,,,0.00,1661.00,VWS V14.01,2013-02-10 00:48:00,
2013-02-09 19:49:00,40.9,22.2,30.30,NW,315,0.0,0.0,47,0.00,,,0.00,1663.00,VWS V14.01,2013-02-10 00:49:00,
2013-02-09 19:50:00,40.8,22.1,30.30,NW,315,0.0,0.0,47,0.00,,,0.00,1663.00,VWS V14.01,2013-02-10 00:50:00,
2013-02-09 19:51:00,40.8,22.6,30.30,NW,315,0.0,0.0,48,0.00,,,0.00,1663.00,VWS V14.01,2013-02-10 00:51:00,
2013-02-09 19:52:00,40.8,22.6,30.30,NW,315,0.0,0.0,48,0.00,,,0.00,1663.00,VWS V14.01,2013-02-10 00:52:00,
2013-02-09 19:53:00,40.8,23.1,30.30,NW,315,0.0,0.0,49,0.00,,,0.00,1661.00,VWS V14.01,2013-02-10 00:53:00,
2013-02-09 19:54:00,40.8,23.1,30.30,NW,315,0.0,0.0,49,0.00,,,0.00,1661.00,VWS V14.01,2013-02-10 00:54:00,
2013-02-09 19:55:00,40.9,23.2,30.30,NW,315,0.0,0.0,49,0.00,,,0.00,1661.00,VWS V14.01,2013-02-10 00:55:00,
2013-02-09 19:56:00,40.9,23.7,30.30,NW,315,0.0,0.0,50,0.00,,,0.00,1663.00,VWS V14.01,2013-02-10 00:56:00,
2013-02-09 19:57:00,40.9,23.7,30.30,NW,315,0.0,0.0,50,0.00,,,0.00,1663.00,VWS V14.01,2013-02-10 00:57:00,
2013-02-09 19:58:00,40.9,23.7,30.30,NW,315,0.0,0.0,50,0.00,,,0.00,1664.00,VWS V14.01,2013-02-10 00:58:00,
2013-02-09 19:59:00,40.9,23.7,30.30,NW,315,0.0,0.0,50,0.00,,,0.00,1665.00,VWS V14.01,2013-02-10 00:59:00,
2013-02-09 20:00:00,40.9,23.7,30.30,NW,315,0.0,0.0,50,0.00,,,0.00,1663.00,VWS V14.01,2013-02-10 01:00:00,
2013-02-09 20:01:00,41.0,23.8,30.31,NW,315,0.0,0.0,50,0.00,,,0.00,1663.00,VWS V14.01,2013-02-10 01:01:00,
2013-02-09 20:02:00,41.0,23.8,30.31,NW,315,0.0,0.0,50,0.00,,,0.00,1665.00,VWS V14.01,2013-02-10 01:02:00,
2013-02-09 20:03:00,41.0,23.3,30.31,NW,315,0.0,0.0,49,0.00,,,0.00,1665.00,VWS V14.01,2013-02-10 01:03:00,
2013-02-09 20:04:00,41.0,23.3,30.31,NW,315,0.0,0.0,49,0.00,,,0.00,1665.00,VWS V14.01,2013-02-10 01:04:00,
2013-02-09 20:05:00,40.9,23.2,30.31,NW,315,0.0,0.0,49,0.00,,,0.00,1665.00,VWS V14.01,2013-02-10 01:05:00,
2013-02-09 20:06:00,40.9,23.7,30.31,NW,315,0.0,0.0,50,0.00,,,0.00,1663.00,VWS V14.01,2013-02-10 01:06:00,
2013-02-09 20:07:00,40.9,23.7,30.31,NW,315,0.0,0.0,50,0.00,,,0.00,1663.00,VWS V14.01,2013-02-10 01:07:00,
2013-02-09 20:08:00,40.9,23.7,30.30,NW,315,0.0,1.0,50,0.00,,,0.00,1661.00,VWS V14.01,2013-02-10 01:08:00,
2013-02-09 20:09:00,40.9,23.7,30.31,NW,315,0.0,1.0,50,0.00,,,0.00,1663.00,VWS V14.01,2013-02-10 01:09:00,
2013-02-09 20:10:00,40.9,23.7,30.30,NW,315,0.0,0.0,50,0.00,,,0.00,1664.00,VWS V14.01,2013-02-10 01:10:00,
2013-02-09 20:11:00,40.8,24.1,30.31,NW,315,0.0,0.0,51,0.00,,,0.00,1663.00,VWS V14.01,2013-02-10 01:11:00,
2013-02-09 20:12:00,40.8,23.6,30.30,NW,315,0.0,0.0,50,0.00,,,0.00,1663.00,VWS V14.01,2013-02-10 01:12:00,
2013-02-09 20:13:00,40.8,24.1,30.30,NW,315,0.0,1.0,51,0.00,,,0.00,1663.00,VWS V14.01,2013-02-10 01:13:00,
2013-02-09 20:14:00,40.7,24.0,30.31,NW,315,0.0,0.0,51,0.00,,,0.00,1663.00,VWS V14.01,2013-02-10 01:14:00,
2013-02-09 20:15:00,40.7,24.0,30.31,NW,315,0.0,0.0,51,0.00,,,0.00,1661.00,VWS V14.01,2013-02-10 01:15:00,
2013-02-09 20:16:00,40.6,23.9,30.31,NW,315,0.0,0.0,51,0.00,,,0.00,1661.00,VWS V14.01,2013-02-10 01:16:00,
2013-02-09 20:17:00,40.6,24.4,30.31,NW,315,0.0,0.0,52,0.00,,,0.00,1663.00,VWS V14.01,2013-02-10 01:17:00,
2013-02-09 20:18:00,40.5,24.3,30.31,NW,315,0.0,0.0,52,0.00,,,0.00,1661.00,VWS V14.01,2013-02-10 01:18:00,
2013-02-09 20:19:00,40.4,23.2,30.31,NW,315,0.0,0.0,50,0.00,,,0.00,1661.00,VWS V14.01,2013-02-10 01:19:00,
2013-02-09 20:20:00,40.3,23.1,30.31,NW,315,0.0,0.0,50,0.00,,,0.00,1661.00,VWS V14.01,2013-02-10 01:20:00,
2013-02-09 20:21:00,40.2,23.5,30.31,NW,315,0.0,0.0,51,0.00,,,0.00,1659.00,VWS V14.01,2013-02-10 01:21:00,
2013-02-09 20:22:00,40.1,23.4,30.31,NW,315,0.0,0.0,51,0.00,,,0.00,1658.00,VWS V14.01,2013-02-10 01:22:00,
2013-02-09 20:23:00,40.1,23.4,30.31,NW,315,0.0,0.0,51,0.00,,,0.00,1658.00,VWS V14.01,2013-02-10 01:23:00,
2013-02-09 20:24:00,40.0,23.4,30.31,NW,315,0.0,1.0,51,0.00,,,0.00,1658.00,VWS V14.01,2013-02-10 01:24:00,
2013-02-09 20:25:00,40.0,23.4,30.31,NW,315,0.0,0.0,51,0.00,,,0.00,1658.00,VWS V14.01,2013-02-10 01:25:00,
2013-02-09 20:26:00,40.0,23.4,30.31,NW,315,0.0,0.0,51,0.00,,,0.00,1658.00,VWS V14.01,2013-02-10 01:26:00,
2013-02-09 20:27:00,40.0,23.4,30.31,NW,315,0.0,0.0,51,0.00,,,0.00,1658.00,VWS V14.01,2013-02-10 01:27:00,
2013-02-09 20:28:00,40.1,23.4,30.31,NW,315,0.0,0.0,51,0.00,,,0.00,1658.00,VWS V14.01,2013-02-10 01:28:00,
2013-02-09 20:29:00,40.0,23.4,30.32,NW,315,0.0,0.0,51,0.00,,,0.00,1658.00,VWS V14.01,2013-02-10 01:29:00,
2013-02-09 20:30:00,40.0,22.9,30.31,NW,315,0.0,0.0,50,0.00,,,0.00,1658.00,VWS V14.01,2013-02-10 01:30:00,
2013-02-09 20:31:00,40.0,24.3,30.32,NW,315,0.0,1.0,53,0.00,,,0.00,1658.00,VWS V14.01,2013-02-10 01:31:00,
2013-02-09 20:32:00,39.9,24.2,30.32,NW,315,0.0,0.0,53,0.00,,,0.00,1656.00,VWS V14.01,2013-02-10 01:32:00,
2013-02-09 20:33:00,39.8,24.5,30.32,NW,315,0.0,0.0,54,0.00,,,0.00,1658.00,VWS V14.01,2013-02-10 01:33:00,
2013-02-09 20:34:00,39.7,24.4,30.32,NW,315,0.0,0.0,54,0.00,,,0.00,1658.00,VWS V14.01,2013-02-10 01:34:00,
2013-02-09 20:35:00,39.6,24.8,30.32,NW,315,0.0,0.0,55,0.00,,,0.00,1654.00,VWS V14.01,2013-02-10 01:35:00,
2013-02-09 20:36:00,39.5,24.7,30.32,NW,315,0.0,0.0,55,0.00,,,0.00,1654.00,VWS V14.01,2013-02-10 01:36:00,
2013-02-09 20:37:00,39.4,24.6,30.32,NW,315,0.0,0.0,55,0.00,,,0.00,1654.00,VWS V14.01,2013-02-10 01:37:00,
2013-02-09 20:38:00,39.3,23.6,30.32,NW,315,0.0,1.0,53,0.00,,,0.00,1654.00,VWS V14.01,2013-02-10 01:38:00,
2013-02-09 20:39:00,39.3,23.6,30.32,NW,315,0.0,0.0,53,0.00,,,0.00,1652.00,VWS V14.01,2013-02-10 01:39:00,
2013-02-09 20:40:00,39.3,23.2,30.32,NW,315,0.0,0.0,52,0.00,,,0.00,1652.00,VWS V14.01,2013-02-10 01:40:00,
2013-02-09 20:41:00,39.3,23.2,30.32,NW,315,0.0,0.0,52,0.00,,,0.00,1652.00,VWS V14.01,2013-02-10 01:41:00,
2013-02-09 20:42:00,39.3,23.2,30.31,NW,315,0.0,0.0,52,0.00,,,0.00,1652.00,VWS V14.01,2013-02-10 01:42:00,
2013-02-09 20:43:00,39.3,23.6,30.32,NW,315,0.0,0.0,53,0.00,,,0.00,1651.00,VWS V14.01,2013-02-10 01:43:00,
2013-02-09 20:44:00,39.3,23.2,30.32,NW,315,0.0,0.0,52,0.00,,,0.00,1652.00,VWS V14.01,2013-02-10 01:44:00,
2013-02-09 20:45:00,39.3,23.2,30.32,NW,315,0.0,1.0,52,0.00,,,0.00,1652.00,VWS V14.01,2013-02-10 01:45:00,
2013-02-09 20:46:00,39.2,24.4,30.32,NW,315,1.0,2.0,55,0.00,,,0.00,1652.00,VWS V14.01,2013-02-10 01:46:00,
2013-02-09 20:47:00,39.1,24.7,30.32,NW,315,1.0,2.0,56,0.00,,,0.00,1652.00,VWS V14.01,2013-02-10 01:47:00,
2013-02-09 20:48:00,38.9,25.8,30.32,NW,315,0.0,1.0,59,0.00,,,0.00,1654.00,VWS V14.01,2013-02-10 01:48:00,
2013-02-09 20:49:00,38.8,26.1,30.32,NW,315,0.0,0.0,60,0.00,,,0.00,1654.00,VWS V14.01,2013-02-10 01:49:00,
2013-02-09 20:50:00,38.7,26.0,30.32,NW,315,0.0,0.0,60,0.00,,,0.00,1651.00,VWS V14.01,2013-02-10 01:50:00,
2013-02-09 20:51:00,38.5,25.4,30.32,NW,315,0.0,0.0,59,0.00,,,0.00,1650.00,VWS V14.01,2013-02-10 01:51:00,
2013-02-09 20:52:00,38.4,25.3,30.32,NW,315,0.0,0.0,59,0.00,,,0.00,1649.00,VWS V14.01,2013-02-10 01:52:00,
2013-02-09 20:53:00,38.3,25.2,30.32,NW,315,0.0,0.0,59,0.00,,,0.00,1649.00,VWS V14.01,2013-02-10 01:53:00,
2013-02-09 20:54:00,38.2,24.3,30.32,NW,315,0.0,1.0,57,0.00,,,0.00,1647.00,VWS V14.01,2013-02-10 01:54:00,
2013-02-09 20:55:00,38.2,24.3,30.32,NW,315,0.0,0.0,57,0.00,,,0.00,1649.00,VWS V14.01,2013-02-10 01:55:00,
2013-02-09 20:56:00,38.2,23.9,30.32,NW,315,0.0,0.0,56,0.00,,,0.00,1647.00,VWS V14.01,2013-02-10 01:56:00,
2013-02-09 20:57:00,38.2,23.9,30.32,NW,315,0.0,0.0,56,0.00,,,0.00,1647.00,VWS V14.01,2013-02-10 01:57:00,
2013-02-09 20:58:00,38.2,23.9,30.32,NW,315,0.0,0.0,56,0.00,,,0.00,1649.00,VWS V14.01,2013-02-10 01:58:00,
2013-02-09 20:59:00,38.2,23.9,30.32,NW,315,0.0,0.0,56,0.00,,,0.00,1649.00,VWS V14.01,2013-02-10 01:59:00,
2013-02-09 21:00:00,38.2,23.5,30.32,NW,315,0.0,0.0,55,0.00,,,0.00,1647.00,VWS V14.01,2013-02-10 02:00:00,
2013-02-09 21:01:00,38.3,23.6,30.32,NW,315,0.0,0.0,55,0.00,,,0.00,1647.00,VWS V14.01,2013-02-10 02:01:00,
2013-02-09 21:02:00,38.2,23.5,30.32,NW,315,0.0,0.0,55,0.00,,,0.00,1648.00,VWS V14.01,2013-02-10 02:02:00,
2013-02-09 21:03:00,38.3,23.6,30.32,NW,315,0.0,0.0,55,0.00,,,0.00,1649.00,VWS V14.01,2013-02-10 02:03:00,
2013-02-09 21:04:00,38.3,23.6,30.33,NW,315,0.0,0.0,55,0.00,,,0.00,1649.00,VWS V14.01,2013-02-10 02:04:00,
2013-02-09 21:05:00,38.3,23.1,30.32,NW,315,0.0,0.0,54,0.00,,,0.00,1649.00,VWS V14.01,2013-02-10 02:05:00,
2013-02-09 21:06:00,38.3,23.1,30.32,NW,315,0.0,0.0,54,0.00,,,0.00,1649.00,VWS V14.01,2013-02-10 02:06:00,
2013-02-09 21:07:00,38.3,23.6,30.32,NW,315,0.0,0.0,55,0.00,,,0.00,1649.00,VWS V14.01,2013-02-10 02:07:00,
2013-02-09 21:08:00,38.3,23.6,30.32,NW,315,0.0,0.0,55,0.00,,,0.00,1647.00,VWS V14.01,2013-02-10 02:08:00,
2013-02-09 21:09:00,38.3,23.6,30.32,NW,315,0.0,0.0,55,0.00,,,0.00,1645.00,VWS V14.01,2013-02-10 02:09:00,
2013-02-09 21:10:00,38.5,23.8,30.32,NW,315,0.0,1.0,55,0.00,,,0.00,1647.00,VWS V14.01,2013-02-10 02:10:00,
2013-02-09 21:11:00,38.6,23.8,30.32,NW,315,0.0,0.0,55,0.00,,,0.00,1647.00,VWS V14.01,2013-02-10 02:11:00,
2013-02-09 21:12:00,38.7,23.5,30.32,NW,315,0.0,0.0,54,0.00,,,0.00,1649.00,VWS V14.01,2013-02-10 02:12:00,
2013-02-09 21:13:00,38.7,23.1,30.32,NW,315,0.0,0.0,53,0.00,,,0.00,1649.00,VWS V14.01,2013-02-10 02:13:00,
2013-02-09 21:14:00,38.8,23.6,30.32,NW,315,0.0,0.0,54,0.00,,,0.00,1649.00,VWS V14.01,2013-02-10 02:14:00,
2013-02-09 21:15:00,38.8,23.1,30.32,NW,315,0.0,0.0,53,0.00,,,0.00,1651.00,VWS V14.01,2013-02-10 02:15:00,
2013-02-09 21:16:00,38.9,23.7,30.32,NW,315,0.0,0.0,54,0.00,,,0.00,1649.00,VWS V14.01,2013-02-10 02:16:00,
2013-02-09 21:17:00,38.9,23.7,30.32,NW,315,0.0,0.0,54,0.00,,,0.00,1649.00,VWS V14.01,2013-02-10 02:17:00,
2013-02-09 21:18:00,38.9,23.7,30.32,NW,315,0.0,0.0,54,0.00,,,0.00,1649.00,VWS V14.01,2013-02-10 02:18:00,
2013-02-09 21:19:00,38.9,23.2,30.32,NW,315,0.0,0.0,53,0.00,,,0.00,1649.00,VWS V14.01,2013-02-10 02:19:00,
2013-02-09 21:20:00,38.9,23.7,30.32,NW,315,0.0,0.0,54,0.00,,,0.00,1649.00,VWS V14.01,2013-02-10 02:20:00,
2013-02-09 21:21:00,38.8,23.6,30.32,NW,315,0.0,0.0,54,0.00,,,0.00,1649.00,VWS V14.01,2013-02-10 02:21:00,
2013-02-09 21:22:00,38.8,23.6,30.32,NW,315,0.0,0.0,54,0.00,,,0.00,1649.00,VWS V14.01,2013-02-10 02:22:00,
2013-02-09 21:23:00,38.8,23.1,30.32,NW,315,0.0,0.0,53,0.00,,,0.00,1645.00,VWS V14.01,2013-02-10 02:23:00,
2013-02-09 21:24:00,38.8,23.1,30.32,NW,315,0.0,0.0,53,0.00,,,0.00,1645.00,VWS V14.01,2013-02-10 02:24:00,
2013-02-09 21:25:00,38.7,23.5,30.32,NW,315,0.0,0.0,54,0.00,,,0.00,1644.00,VWS V14.01,2013-02-10 02:25:00,
2013-02-09 21:26:00,38.7,23.5,30.32,NW,315,0.0,0.0,54,0.00,,,0.00,1643.00,VWS V14.01,2013-02-10 02:26:00,
2013-02-09 21:27:00,38.6,23.8,30.32,NW,315,0.0,0.0,55,0.00,,,0.00,1642.00,VWS V14.01,2013-02-10 02:27:00,
2013-02-09 21:28:00,38.6,23.8,30.32,NW,315,0.0,0.0,55,0.00,,,0.00,1642.00,VWS V14.01,2013-02-10 02:28:00,
2013-02-09 21:29:00,38.5,22.4,30.33,NW,315,0.0,0.0,52,0.00,,,0.00,1640.00,VWS V14.01,2013-02-10 02:29:00,
2013-02-09 21:30:00,38.5,22.4,30.33,NW,315,0.0,0.0,52,0.00,,,0.00,1637.00,VWS V14.01,2013-02-10 02:30:00,
2013-02-09 21:31:00,38.4,22.3,30.33,NW,315,0.0,0.0,52,0.00,,,0.00,1638.00,VWS V14.01,2013-02-10 02:31:00,
2013-02-09 21:32:00,38.4,22.3,30.33,NW,315,0.0,0.0,52,0.00,,,0.00,1640.00,VWS V14.01,2013-02-10 02:32:00,
2013-02-09 21:33:00,38.4,22.8,30.33,NW,315,0.0,0.0,53,0.00,,,0.00,1640.00,VWS V14.01,2013-02-10 02:33:00,
2013-02-09 21:34:00,38.4,23.2,30.32,NW,315,0.0,0.0,54,0.00,,,0.00,1640.00,VWS V14.01,2013-02-10 02:34:00,
2013-02-09 21:35:00,38.3,23.6,30.32,NW,315,0.0,0.0,55,0.00,,,0.00,1638.00,VWS V14.01,2013-02-10 02:35:00,
2013-02-09 21:36:00,38.3,23.6,30.32,NW,315,0.0,0.0,55,0.00,,,0.00,1644.00,VWS V14.01,2013-02-10 02:36:00,
2013-02-09 21:37:00,38.3,23.6,30.32,NW,315,0.0,0.0,55,0.00,,,0.00,1643.00,VWS V14.01,2013-02-10 02:37:00,
2013-02-09 21:38:00,38.3,24.0,30.32,NW,315,0.0,0.0,56,0.00,,,0.00,1644.00,VWS V14.01,2013-02-10 02:38:00,
2013-02-09 21:39:00,38.3,24.0,30.32,NW,315,0.0,0.0,56,0.00,,,0.00,1644.00,VWS V14.01,2013-02-10 02:39:00,
2013-02-09 21:40:00,38.3,24.0,30.32,NW,315,0.0,0.0,56,0.00,,,0.00,1642.00,VWS V14.01,2013-02-10 02:40:00,
2013-02-09 21:41:00,38.3,24.4,30.32,NW,315,0.0,0.0,57,0.00,,,0.00,1640.00,VWS V14.01,2013-02-10 02:41:00,
2013-02-09 21:42:00,38.3,24.4,30.32,NW,315,0.0,0.0,57,0.00,,,0.00,1642.00,VWS V14.01,2013-02-10 02:42:00,
2013-02-09 21:43:00,38.3,25.2,30.32,NW,315,0.0,0.0,59,0.00,,,0.00,1639.00,VWS V14.01,2013-02-10 02:43:00,
2013-02-09 21:44:00,38.2,25.1,30.32,NW,315,0.0,0.0,59,0.00,,,0.00,1638.00,VWS V14.01,2013-02-10 02:44:00,
2013-02-09 21:45:00,38.2,25.5,30.32,NW,315,0.0,0.0,60,0.00,,,0.00,1635.00,VWS V14.01,2013-02-10 02:45:00,
2013-02-09 21:46:00,38.1,25.5,30.33,NW,315,0.0,0.0,60,0.00,,,0.00,1633.00,VWS V14.01,2013-02-10 02:46:00,
2013-02-09 21:47:00,38.0,25.0,30.33,NW,315,0.0,0.0,59,0.00,,,0.00,1631.00,VWS V14.01,2013-02-10 02:47:00,
2013-02-09 21:48:00,37.9,25.3,30.33,NW,315,0.0,0.0,60,0.00,,,0.00,1640.00,VWS V14.01,2013-02-10 02:48:00,
2013-02-09 21:49:00,37.8,25.2,30.33,NW,315,0.0,0.0,60,0.00,,,0.00,1639.00,VWS V14.01,2013-02-10 02:49:00,
2013-02-09 21:50:00,37.7,25.1,30.33,NW,315,0.0,0.0,60,0.00,,,0.00,1637.00,VWS V14.01,2013-02-10 02:50:00,
2013-02-09 21:51:00,37.7,24.7,30.32,NW,315,0.0,0.0,59,0.00,,,0.00,1635.00,VWS V14.01,2013-02-10 02:51:00,
2013-02-09 21:52:00,37.6,23.3,30.32,NW,315,0.0,0.0,56,0.00,,,0.00,1635.00,VWS V14.01,2013-02-10 02:52:00,
2013-02-09 21:53:00,37.6,23.3,30.32,NW,315,0.0,0.0,56,0.00,,,0.00,1635.00,VWS V14.01,2013-02-10 02:53:00,
2013-02-09 21:54:00,37.5,23.2,30.33,NW,315,0.0,0.0,56,0.00,,,0.00,1633.00,VWS V14.01,2013-02-10 02:54:00,
2013-02-09 21:55:00,37.5,23.2,30.33,NW,315,0.0,0.0,56,0.00,,,0.00,1634.00,VWS V14.01,2013-02-10 02:55:00,
2013-02-09 21:56:00,37.4,23.1,30.33,NW,315,0.0,0.0,56,0.00,,,0.00,1633.00,VWS V14.01,2013-02-10 02:56:00,
2013-02-09 21:57:00,37.4,22.7,30.33,NW,315,0.0,0.0,55,0.00,,,0.00,1633.00,VWS V14.01,2013-02-10 02:57:00,
2013-02-09 21:58:00,37.3,23.1,30.33,NW,315,0.0,0.0,56,0.00,,,0.00,1631.00,VWS V14.01,2013-02-10 02:58:00,
2013-02-09 21:59:00,37.3,23.1,30.33,NW,315,0.0,0.0,56,0.00,,,0.00,1633.00,VWS V14.01,2013-02-10 02:59:00,
2013-02-09 22:00:00,37.2,23.0,30.33,NW,315,0.0,0.0,56,0.00,,,0.00,1631.00,VWS V14.01,2013-02-10 03:00:00,
2013-02-09 22:01:00,37.1,22.9,30.33,NW,315,0.0,0.0,56,0.00,,,0.00,1629.00,VWS V14.01,2013-02-10 03:01:00,
2013-02-09 22:02:00,37.1,22.9,30.33,NW,315,0.0,0.0,56,0.00,,,0.00,1629.00,VWS V14.01,2013-02-10 03:02:00,
2013-02-09 22:03:00,37.1,23.3,30.33,NW,315,0.0,0.0,57,0.00,,,0.00,1631.00,VWS V14.01,2013-02-10 03:03:00,
2013-02-09 22:04:00,37.2,23.4,30.33,NW,315,0.0,0.0,57,0.00,,,0.00,1629.00,VWS V14.01,2013-02-10 03:04:00,
2013-02-09 22:05:00,37.2,23.4,30.33,NW,315,0.0,0.0,57,0.00,,,0.00,1631.00,VWS V14.01,2013-02-10 03:05:00,
2013-02-09 22:06:00,37.2,23.4,30.33,NW,315,0.0,0.0,57,0.00,,,0.00,1629.00,VWS V14.01,2013-02-10 03:06:00,
2013-02-09 22:07:00,37.3,23.5,30.33,NW,315,0.0,0.0,57,0.00,,,0.00,1631.00,VWS V14.01,2013-02-10 03:07:00,
2013-02-09 22:08:00,37.2,23.4,30.33,NW,315,0.0,0.0,57,0.00,,,0.00,1628.00,VWS V14.01,2013-02-10 03:08:00,
2013-02-09 22:09:00,37.2,23.4,30.33,NW,315,0.0,0.0,57,0.00,,,0.00,1631.00,VWS V14.01,2013-02-10 03:09:00,
2013-02-09 22:10:00,37.2,23.4,30.33,NW,315,0.0,0.0,57,0.00,,,0.00,1629.00,VWS V14.01,2013-02-10 03:10:00,
2013-02-09 22:11:00,37.2,23.4,30.33,NW,315,0.0,0.0,57,0.00,,,0.00,1629.00,VWS V14.01,2013-02-10 03:11:00,
2013-02-09 22:12:00,37.2,22.5,30.33,NW,315,0.0,0.0,55,0.00,,,0.00,1629.00,VWS V14.01,2013-02-10 03:12:00,
2013-02-09 22:13:00,37.1,22.4,30.33,NW,315,0.0,0.0,55,0.00,,,0.00,1627.00,VWS V14.01,2013-02-10 03:13:00,
2013-02-09 22:14:00,37.1,22.4,30.33,NW,315,0.0,0.0,55,0.00,,,0.00,1624.00,VWS V14.01,2013-02-10 03:14:00,
2013-02-09 22:15:00,37.1,22.9,30.33,NW,315,0.0,0.0,56,0.00,,,0.00,1622.00,VWS V14.01,2013-02-10 03:15:00,
2013-02-09 22:16:00,37.1,22.9,30.33,NW,315,0.0,0.0,56,0.00,,,0.00,1628.00,VWS V14.01,2013-02-10 03:16:00,
2013-02-09 22:17:00,37.0,23.2,30.34,NW,315,0.0,1.0,57,0.00,,,0.00,1626.00,VWS V14.01,2013-02-10 03:17:00,
2013-02-09 22:18:00,37.0,23.6,30.34,NW,315,1.0,1.0,58,0.00,,,0.00,1627.00,VWS V14.01,2013-02-10 03:18:00,
2013-02-09 22:19:00,36.8,25.0,30.34,NW,315,1.0,1.0,62,0.00,,,0.00,1626.00,VWS V14.01,2013-02-10 03:19:00,
2013-02-09 22:20:00,36.6,25.6,30.34,NW,315,1.0,1.0,64,0.00,,,0.00,1626.00,VWS V14.01,2013-02-10 03:20:00,
2013-02-09 22:21:00,36.3,25.3,30.34,NW,315,0.0,0.0,64,0.00,,,0.00,1626.00,VWS V14.01,2013-02-10 03:21:00,
2013-02-09 22:22:00,36.2,25.6,30.34,NW,315,0.0,0.0,65,0.00,,,0.00,1622.00,VWS V14.01,2013-02-10 03:22:00,
2013-02-09 22:23:00,36.0,25.4,30.34,NW,315,0.0,0.0,65,0.00,,,0.00,1624.00,VWS V14.01,2013-02-10 03:23:00,
2013-02-09 22:24:00,35.9,24.9,30.33,NW,315,0.0,0.0,64,0.00,,,0.00,1624.00,VWS V14.01,2013-02-10 03:24:00,
2013-02-09 22:25:00,35.8,24.8,30.33,NW,315,0.0,0.0,64,0.00,,,0.00,1621.00,VWS V14.01,2013-02-10 03:25:00,
2013-02-09 22:26:00,35.7,24.4,30.33,NW,315,0.0,0.0,63,0.00,,,0.00,1622.00,VWS V14.01,2013-02-10 03:26:00,
2013-02-09 22:27:00,35.6,24.6,30.33,NW,315,0.0,0.0,64,0.00,,,0.00,1622.00,VWS V14.01,2013-02-10 03:27:00,
2013-02-09 22:28:00,35.5,23.8,30.34,NW,315,0.0,0.0,62,0.00,,,0.00,1622.00,VWS V14.01,2013-02-10 03:28:00,
2013-02-09 22:29:00,35.5,23.4,30.34,NW,315,0.0,0.0,61,0.00,,,0.00,1621.00,VWS V14.01,2013-02-10 03:29:00,
2013-02-09 22:30:00,35.4,23.3,30.34,NW,315,0.0,0.0,61,0.00,,,0.00,1619.00,VWS V14.01,2013-02-10 03:30:00,
2013-02-09 22:31:00,35.3,23.2,30.34,NW,315,0.0,0.0,61,0.00,,,0.00,1619.00,VWS V14.01,2013-02-10 03:31:00,
2013-02-09 22:32:00,35.3,23.2,30.34,NW,315,0.0,0.0,61,0.00,,,0.00,1617.00,VWS V14.01,2013-02-10 03:32:00,
2013-02-09 22:33:00,35.2,23.1,30.34,NW,315,0.0,0.0,61,0.00,,,0.00,1614.00,VWS V14.01,2013-02-10 03:33:00,
2013-02-09 22:34:00,35.2,23.9,30.34,NW,315,0.0,0.0,63,0.00,,,0.00,1617.00,VWS V14.01,2013-02-10 03:34:00,
2013-02-09 22:35:00,35.1,23.4,30.33,NW,315,0.0,0.0,62,0.00,,,0.00,1614.00,VWS V14.01,2013-02-10 03:35:00,
2013-02-09 22:36:00,35.1,23.0,30.33,NW,315,0.0,0.0,61,0.00,,,0.00,1613.00,VWS V14.01,2013-02-10 03:36:00,
2013-02-09 22:37:00,35.1,22.6,30.33,NW,315,0.0,0.0,60,0.00,,,0.00,1614.00,VWS V14.01,2013-02-10 03:37:00,
2013-02-09 22:38:00,35.1,23.0,30.33,NW,315,0.0,0.0,61,0.00,,,0.00,1614.00,VWS V14.01,2013-02-10 03:38:00,
2013-02-09 22:39:00,35.1,23.0,30.33,NW,315,0.0,0.0,61,0.00,,,0.00,1614.00,VWS V14.01,2013-02-10 03:39:00,
2013-02-09 22:40:00,35.2,23.5,30.33,NW,315,0.0,0.0,62,0.00,,,0.00,1612.00,VWS V14.01,2013-02-10 03:40:00,
2013-02-09 22:41:00,35.2,23.5,30.33,NW,315,0.0,0.0,62,0.00,,,0.00,1614.00,VWS V14.01,2013-02-10 03:41:00,
2013-02-09 22:42:00,35.2,23.5,30.33,NW,315,0.0,0.0,62,0.00,,,0.00,1615.00,VWS V14.01,2013-02-10 03:42:00,
2013-02-09 22:43:00,35.2,23.1,30.33,NW,315,0.0,0.0,61,0.00,,,0.00,1615.00,VWS V14.01,2013-02-10 03:43:00,
2013-02-09 22:44:00,35.2,23.1,30.33,NW,315,0.0,0.0,61,0.00,,,0.00,1614.00,VWS V14.01,2013-02-10 03:44:00,
2013-02-09 22:45:00,35.3,23.6,30.33,NW,315,0.0,0.0,62,0.00,,,0.00,1615.00,VWS V14.01,2013-02-10 03:45:00,
2013-02-09 22:46:00,35.3,23.2,30.33,NW,315,0.0,0.0,61,0.00,,,0.00,1615.00,VWS V14.01,2013-02-10 03:46:00,
2013-02-09 22:47:00,35.2,23.5,30.33,NW,315,0.0,0.0,62,0.00,,,0.00,1614.00,VWS V14.01,2013-02-10 03:47:00,
2013-02-09 22:48:00,35.2,23.5,30.33,NW,315,0.0,0.0,62,0.00,,,0.00,1613.00,VWS V14.01,2013-02-10 03:48:00,
2013-02-09 22:49:00,35.2,23.5,30.33,NW,315,0.0,0.0,62,0.00,,,0.00,1612.00,VWS V14.01,2013-02-10 03:49:00,
2013-02-09 22:50:00,35.3,23.6,30.33,NW,315,0.0,0.0,62,0.00,,,0.00,1612.00,VWS V14.01,2013-02-10 03:50:00,
2013-02-09 22:51:00,35.3,24.0,30.33,NW,315,0.0,0.0,63,0.00,,,0.00,1612.00,VWS V14.01,2013-02-10 03:51:00,
2013-02-09 22:52:00,35.3,24.0,30.33,NW,315,0.0,0.0,63,0.00,,,0.00,1614.00,VWS V14.01,2013-02-10 03:52:00,
2013-02-09 22:53:00,35.3,23.6,30.33,NW,315,0.0,0.0,62,0.00,,,0.00,1612.00,VWS V14.01,2013-02-10 03:53:00,
2013-02-09 22:54:00,35.3,23.6,30.33,NW,315,0.0,0.0,62,0.00,,,0.00,1612.00,VWS V14.01,2013-02-10 03:54:00,
2013-02-09 22:55:00,35.3,24.0,30.33,NW,315,0.0,0.0,63,0.00,,,0.00,1610.00,VWS V14.01,2013-02-10 03:55:00,
2013-02-09 22:56:00,35.3,24.0,30.34,NW,315,0.0,0.0,63,0.00,,,0.00,1610.00,VWS V14.01,2013-02-10 03:56:00,
2013-02-09 22:57:00,35.2,23.9,30.34,NW,315,0.0,0.0,63,0.00,,,0.00,1608.00,VWS V14.01,2013-02-10 03:57:00,
2013-02-09 22:58:00,35.2,23.5,30.34,NW,315,0.0,0.0,62,0.00,,,0.00,1608.00,VWS V14.01,2013-02-10 03:58:00,
2013-02-09 22:59:00,35.2,23.1,30.33,NW,315,0.0,0.0,61,0.00,,,0.00,1608.00,VWS V14.01,2013-02-10 03:59:00,
2013-02-09 23:00:00,35.1,23.4,30.34,NW,315,0.0,0.0,62,0.00,,,0.00,1607.00,VWS V14.01,2013-02-10 04:00:00,
2013-02-09 23:01:00,35.1,23.4,30.33,NW,315,0.0,0.0,62,0.00,,,0.00,1607.00,VWS V14.01,2013-02-10 04:01:00,
2013-02-09 23:02:00,35.1,23.8,30.33,NW,315,0.0,0.0,63,0.00,,,0.00,1607.00,VWS V14.01,2013-02-10 04:02:00,
2013-02-09 23:03:00,35.1,23.8,30.34,NW,315,0.0,0.0,63,0.00,,,0.00,1607.00,VWS V14.01,2013-02-10 04:03:00,
2013-02-09 23:04:00,35.1,23.8,30.33,NW,315,0.0,0.0,63,0.00,,,0.00,1601.00,VWS V14.01,2013-02-10 04:04:00,
2013-02-09 23:05:00,35.1,23.8,30.33,NW,315,0.0,0.0,63,0.00,,,0.00,1605.00,VWS V14.01,2013-02-10 04:05:00,
2013-02-09 23:06:00,35.1,23.8,30.33,NW,315,0.0,0.0,63,0.00,,,0.00,1607.00,VWS V14.01,2013-02-10 04:06:00,
2013-02-09 23:07:00,35.1,24.2,30.33,NW,315,0.0,0.0,64,0.00,,,0.00,1603.00,VWS V14.01,2013-02-10 04:07:00,
2013-02-09 23:08:00,35.1,24.2,30.33,NW,315,0.0,0.0,64,0.00,,,0.00,1608.00,VWS V14.01,2013-02-10 04:08:00,
2013-02-09 23:09:00,35.0,24.1,30.33,NW,315,0.0,0.0,64,0.00,,,0.00,1605.00,VWS V14.01,2013-02-10 04:09:00,
2013-02-09 23:10:00,35.0,24.1,30.33,NW,315,0.0,0.0,64,0.00,,,0.00,1605.00,VWS V14.01,2013-02-10 04:10:00,
2013-02-09 23:11:00,35.0,23.7,30.33,NW,315,0.0,1.0,63,0.00,,,0.00,1605.00,VWS V14.01,2013-02-10 04:11:00,
2013-02-09 23:12:00,34.9,23.2,30.33,NW,315,0.0,0.0,62,0.00,,,0.00,1603.00,VWS V14.01,2013-02-10 04:12:00,
2013-02-09 23:13:00,34.9,23.2,30.33,NW,315,0.0,0.0,62,0.00,,,0.00,1603.00,VWS V14.01,2013-02-10 04:13:00,
2013-02-09 23:14:00,34.8,23.1,30.33,NW,315,0.0,0.0,62,0.00,,,0.00,1603.00,VWS V14.01,2013-02-10 04:14:00,
2013-02-09 23:15:00,34.8,23.5,30.33,NW,315,0.0,0.0,63,0.00,,,0.00,1605.00,VWS V14.01,2013-02-10 04:15:00,
2013-02-09 23:16:00,34.7,23.8,30.33,NW,315,0.0,0.0,64,0.00,,,0.00,1603.00,VWS V14.01,2013-02-10 04:16:00,
2013-02-09 23:17:00,34.6,23.3,30.33,NW,315,0.0,0.0,63,0.00,,,0.00,1603.00,VWS V14.01,2013-02-10 04:17:00,
2013-02-09 23:18:00,34.5,23.2,30.33,NW,315,0.0,0.0,63,0.00,,,0.00,1605.00,VWS V14.01,2013-02-10 04:18:00,
2013-02-09 23:19:00,34.4,23.5,30.33,NW,315,0.0,0.0,64,0.00,,,0.00,1603.00,VWS V14.01,2013-02-10 04:19:00,
2013-02-09 23:20:00,34.4,23.1,30.33,NW,315,0.0,0.0,63,0.00,,,0.00,1605.00,VWS V14.01,2013-02-10 04:20:00,
2013-02-09 23:21:00,34.3,23.4,30.33,NW,315,0.0,0.0,64,0.00,,,0.00,1603.00,VWS V14.01,2013-02-10 04:21:00,
2013-02-09 23:22:00,34.2,23.3,30.33,NW,315,0.0,0.0,64,0.00,,,0.00,1603.00,VWS V14.01,2013-02-10 04:22:00,
2013-02-09 23:23:00,34.1,23.2,30.33,NW,315,0.0,0.0,64,0.00,,,0.00,1599.00,VWS V14.01,2013-02-10 04:23:00,
2013-02-09 23:24:00,34.0,22.7,30.33,NW,315,0.0,0.0,63,0.00,,,0.00,1598.00,VWS V14.01,2013-02-10 04:24:00,
2013-02-09 23:25:00,33.9,22.6,30.33,NW,315,0.0,0.0,63,0.00,,,0.00,1598.00,VWS V14.01,2013-02-10 04:25:00,
2013-02-09 23:26:00,33.9,22.6,30.33,NW,315,0.0,0.0,63,0.00,,,0.00,1598.00,VWS V14.01,2013-02-10 04:26:00,
2013-02-09 23:27:00,33.8,22.5,30.33,NW,315,0.0,0.0,63,0.00,,,0.00,1594.00,VWS V14.01,2013-02-10 04:27:00,
2013-02-09 23:28:00,33.7,22.5,30.33,NW,315,0.0,0.0,63,0.00,,,0.00,1596.00,VWS V14.01,2013-02-10 04:28:00,
2013-02-09 23:29:00,33.6,21.6,30.33,NW,315,0.0,0.0,61,0.00,,,0.00,1596.00,VWS V14.01,2013-02-10 04:29:00,
2013-02-09 23:30:00,33.6,21.6,30.32,NW,315,0.0,1.0,61,0.00,,,0.00,1596.00,VWS V14.01,2013-02-10 04:30:00,
2013-02-09 23:31:00,33.6,22.4,30.32,NW,315,0.0,1.0,63,0.00,,,0.00,1596.00,VWS V14.01,2013-02-10 04:31:00,
2013-02-09 23:32:00,33.6,22.7,30.32,NW,315,0.0,0.0,64,0.00,,,0.00,1598.00,VWS V14.01,2013-02-10 04:32:00,
2013-02-09 23:33:00,33.6,23.1,30.33,NW,315,0.0,0.0,65,0.00,,,0.00,1598.00,VWS V14.01,2013-02-10 04:33:00,
2013-02-09 23:34:00,33.6,23.1,30.33,NW,315,0.0,0.0,65,0.00,,,0.00,1598.00,VWS V14.01,2013-02-10 04:34:00,
2013-02-09 23:35:00,33.6,22.7,30.33,NW,315,0.0,0.0,64,0.00,,,0.00,1598.00,VWS V14.01,2013-02-10 04:35:00,
2013-02-09 23:36:00,33.6,22.7,30.34,NW,315,0.0,0.0,64,0.00,,,0.00,1598.00,VWS V14.01,2013-02-10 04:36:00,
2013-02-09 23:37:00,33.6,22.7,30.33,NW,315,0.0,0.0,64,0.00,,,0.00,1598.00,VWS V14.01,2013-02-10 04:37:00,
2013-02-09 23:38:00,33.5,22.6,30.34,NW,315,0.0,0.0,64,0.00,,,0.00,1600.00,VWS V14.01,2013-02-10 04:38:00,
2013-02-09 23:39:00,33.5,22.6,30.34,NW,315,0.0,0.0,64,0.00,,,0.00,1598.00,VWS V14.01,2013-02-10 04:39:00,
2013-02-09 23:40:00,33.5,22.6,30.34,NW,315,0.0,0.0,64,0.00,,,0.00,1598.00,VWS V14.01,2013-02-10 04:40:00,
2013-02-09 23:41:00,33.4,22.9,30.34,NW,315,0.0,0.0,65,0.00,,,0.00,1596.00,VWS V14.01,2013-02-10 04:41:00,
2013-02-09 23:42:00,33.4,22.9,30.34,NW,315,0.0,0.0,65,0.00,,,0.00,1596.00,VWS V14.01,2013-02-10 04:42:00,
2013-02-09 23:43:00,33.4,22.9,30.34,NW,315,0.0,0.0,65,0.00,,,0.00,1596.00,VWS V14.01,2013-02-10 04:43:00,
2013-02-09 23:44:00,33.4,23.3,30.34,NW,315,0.0,0.0,66,0.00,,,0.00,1594.00,VWS V14.01,2013-02-10 04:44:00,
2013-02-09 23:45:00,33.3,23.2,30.34,NW,315,0.0,0.0,66,0.00,,,0.00,1594.00,VWS V14.01,2013-02-10 04:45:00,
2013-02-09 23:46:00,33.3,23.5,30.34,NW,315,0.0,0.0,67,0.00,,,0.00,1593.00,VWS V14.01,2013-02-10 04:46:00,
2013-02-09 23:47:00,33.3,23.5,30.34,NW,315,0.0,0.0,67,0.00,,,0.00,1589.00,VWS V14.01,2013-02-10 04:47:00,
2013-02-09 23:48:00,33.3,23.5,30.34,NW,315,0.0,0.0,67,0.00,,,0.00,1587.00,VWS V14.01,2013-02-10 04:48:00,
2013-02-09 23:49:00,33.4,23.6,30.34,NW,315,0.0,0.0,67,0.00,,,0.00,1589.00,VWS V14.01,2013-02-10 04:49:00,
2013-02-09 23:50:00,33.4,24.0,30.35,NW,315,0.0,0.0,68,0.00,,,0.00,1589.00,VWS V14.01,2013-02-10 04:50:00,
2013-02-09 23:51:00,33.4,23.6,30.35,NW,315,0.0,0.0,67,0.00,,,0.00,1591.00,VWS V14.01,2013-02-10 04:51:00,
2013-02-09 23:52:00,33.4,24.0,30.34,NW,315,0.0,0.0,68,0.00,,,0.00,1592.00,VWS V14.01,2013-02-10 04:52:00,
2013-02-09 23:53:00,33.4,24.0,30.34,NW,315,0.0,0.0,68,0.00,,,0.00,1593.00,VWS V14.01,2013-02-10 04:53:00,
2013-02-09 23:54:00,33.4,24.0,30.35,NW,315,0.0,0.0,68,0.00,,,0.00,1593.00,VWS V14.01,2013-02-10 04:54:00,
2013-02-09 23:55:00,33.5,24.4,30.35,NW,315,0.0,0.0,69,0.00,,,0.00,1593.00,VWS V14.01,2013-02-10 04:55:00,
2013-02-09 23:56:00,33.5,24.1,30.35,NW,315,0.0,0.0,68,0.00,,,0.00,1593.00,VWS V14.01,2013-02-10 04:56:00,
2013-02-09 23:57:00,33.5,24.1,30.35,NW,315,0.0,0.0,68,0.00,,,0.00,1593.00,VWS V14.01,2013-02-10 04:57:00,
2013-02-09 23:58:00,33.5,24.1,30.35,NW,315,0.0,0.0,68,0.00,,,0.00,1594.00,VWS V14.01,2013-02-10 04:58:00,
2013-02-09 23:59:00,33.5,24.1,30.35,NW,315,0.0,0.0,68,0.00,,,0.00,1593.00,VWS V14.01,2013-02-10 04:59:00,